[ Triathlon ] [ Swim/Bike ][ Swim/Run ] [ Bike/Run ]
2016 Spa Girl Tri Lost Pines Results
Triathlon
Overall Swim
--400m--
T1 Bike
--10 Miles--
T2 Run
--2 Miles--
AG
Pos
Overall
Pos
Name Race No Time AG
Pos
Overall
Pos
Time Pace AG
Pos
Overall
Pos
Time AG
Pos
Overall
Pos
Time Pace AG
Pos
Overall
Pos
Time AG
Pos
Overall
Pos
Time Pace
Masters
1 4 Jacqui DUKE 92 00:59:28 1 25 00:06:00 1:29 sec/100m 1 16 00:01:14 1 6 00:33:16 18.0 m/hr 1 76 00:01:18 1 42 00:17:42 8:50 min/m
Overall
1 1 Kathy SANFORD 58 00:55:50 2 14 00:05:52 1:27 sec/100m 1 8 00:01:04 1 2 00:32:21 18.6 m/hr 2 60 00:01:12 2 3 00:15:23 7:41 min/m
2 2 Olivia WOODRUFF 134 00:56:33 1 2 00:05:28 1:21 sec/100m 3 45 00:01:42 2 3 00:32:26 18.5 m/hr 3 69 00:01:15 3 8 00:15:43 7:51 min/m
3 3 Tish LEE 133 00:58:41 3 341 00:07:21 1:50 sec/100m 2 25 00:01:23 3 10 00:35:00 17.1 m/hr 1 3 00:00:41 1 1 00:14:20 7:09 min/m
Ages 19 and Under
1 51 Katherine SHACKELFORD 701 01:09:26 1 10 00:05:49 1:27 sec/100m 1 53 00:01:48 1 100 00:42:13 14.2 m/hr 3 10 00:00:48 3 64 00:18:50 9:24 min/m
2 53 Alyssa COURY 503 01:09:55 4 63 00:06:13 1:33 sec/100m 5 176 00:02:57 2 116 00:42:57 14.0 m/hr 1 6 00:00:45 2 28 00:17:06 8:32 min/m
3 66 Jenna HAMM 90 01:11:58 3 21 00:05:56 1:28 sec/100m 2 60 00:01:53 3 222 00:47:52 12.5 m/hr 2 9 00:00:48 1 5 00:15:31 7:45 min/m
4 305 Lopez MADISON 703 01:31:07 15 387 00:07:35 1:53 sec/100m 7 327 00:04:11 5 291 00:50:49 11.8 m/hr 11 374 00:03:04 10 298 00:25:29 12:44 min/m
5 308 Katherine CANTRELL 252 01:31:17 2 13 00:05:50 1:27 sec/100m 11 420 00:05:46 4 253 00:48:58 12.3 m/hr 13 398 00:03:22 11 348 00:27:23 13:41 min/m
6 352 Naya JAYARAM 669 01:37:25 14 314 00:07:16 1:48 sec/100m 10 407 00:05:18 6 363 00:55:28 10.8 m/hr 15 440 00:03:59 8 293 00:25:26 12:42 min/m
7 353 Joyce LAI 24 01:37:31 8 160 00:06:37 1:39 sec/100m 13 436 00:06:03 7 368 00:55:39 10.8 m/hr 14 427 00:03:47 9 294 00:25:26 12:42 min/m
8 356 Lissie BOCK 294 01:37:54 10 223 00:06:54 1:43 sec/100m 4 169 00:02:54 9 439 01:06:37 9.0 m/hr 8 284 00:02:20 4 75 00:19:10 9:34 min/m
9 362 Amelie RUGGERO 489 01:38:54 11 267 00:07:05 1:46 sec/100m 3 141 00:02:37 8 394 00:59:48 10.0 m/hr 7 247 00:02:03 12 350 00:27:24 13:41 min/m
10 365 Marianna PARZICK 307 01:39:21 5 99 00:06:23 1:35 sec/100m 6 312 00:04:01 10 447 01:07:30 8.9 m/hr 5 200 00:01:49 5 95 00:19:40 9:49 min/m
11 466 Emmy PECK 566 01:59:35 9 187 00:06:45 1:41 sec/100m 9 399 00:05:03 11 481 01:15:29 8.0 m/hr 4 90 00:01:21 14 424 00:30:59 15:29 min/m
12 473 Scout ROPER 454 02:01:18 13 311 00:07:16 1:48 sec/100m 8 396 00:05:01 12 482 01:16:59 7.8 m/hr 12 378 00:03:07 13 383 00:28:57 14:28 min/m
13 482 Franny CUTTER 375 02:05:09 6 104 00:06:24 1:35 sec/100m 15 460 00:06:41 14 489 01:25:58 7.0 m/hr 9 329 00:02:41 6 221 00:23:27 11:43 min/m
14 483 Carson CARTER 299 02:05:16 7 134 00:06:30 1:37 sec/100m 14 458 00:06:39 13 488 01:25:36 7.0 m/hr 10 373 00:03:04 7 223 00:23:28 11:43 min/m
15 493 Skylar CRISP 589 02:18:27 12 269 00:07:05 1:46 sec/100m 12 432 00:05:58 15 490 01:28:21 6.8 m/hr 6 214 00:01:52 15 465 00:35:14 17:36 min/m
Ages 20 - 24
1 160 Ellen MCLAUGHLIN 428 01:19:40 1 67 00:06:14 1:33 sec/100m 1 142 00:02:38 3 191 00:46:27 12.9 m/hr 1 51 00:01:09 1 217 00:23:13 11:36 min/m
2 205 Kellie RICE 254 01:23:27 2 143 00:06:33 1:38 sec/100m 3 373 00:04:48 1 170 00:45:34 13.2 m/hr 3 348 00:02:49 2 236 00:23:46 11:52 min/m
3 222 Addison WILLMON 138 01:25:19 3 165 00:06:37 1:39 sec/100m 2 371 00:04:46 2 173 00:45:37 13.2 m/hr 2 345 00:02:47 3 300 00:25:34 12:46 min/m
Ages 25 - 29
1 7 Olivia WETHINGTON 321 01:01:14 1 5 00:05:44 1:25 sec/100m 1 19 00:01:18 1 23 00:37:02 16.2 m/hr 2 42 00:01:06 2 14 00:16:05 8:02 min/m
2 32 Lindsey GLENN 522 01:06:53 11 193 00:06:46 1:41 sec/100m 6 106 00:02:19 3 46 00:38:32 15.6 m/hr 14 168 00:01:42 3 40 00:17:36 8:47 min/m
3 57 Taylor WHITTEMORE 264 01:10:25 6 75 00:06:17 1:34 sec/100m 9 163 00:02:51 2 45 00:38:32 15.6 m/hr 15 183 00:01:45 9 135 00:21:02 10:30 min/m
4 70 Anne COPE 227 01:12:29 20 291 00:07:09 1:47 sec/100m 5 98 00:02:15 5 71 00:40:37 14.8 m/hr 13 167 00:01:42 7 128 00:20:49 10:24 min/m
5 73 Christina PALOMINO 141 01:12:38 23 355 00:07:28 1:51 sec/100m 3 71 00:02:02 4 62 00:40:18 14.9 m/hr 27 490 00:08:03 1 2 00:14:50 7:24 min/m
6 92 Kylie MCFALL 362 01:13:52 10 175 00:06:41 1:40 sec/100m 10 172 00:02:54 7 117 00:42:57 14.0 m/hr 11 117 00:01:26 5 104 00:19:55 9:57 min/m
7 95 Katie KANTRALES 225 01:14:31 5 74 00:06:17 1:34 sec/100m 14 235 00:03:21 8 122 00:43:22 13.8 m/hr 3 45 00:01:07 6 113 00:20:25 10:12 min/m
8 177 Rachel BUTLER 449 01:20:45 8 135 00:06:30 1:37 sec/100m 16 282 00:03:44 9 148 00:44:27 13.5 m/hr 1 30 00:01:03 14 274 00:25:03 12:31 min/m
9 178 Doering GRETCHEN 706 01:20:51 12 211 00:06:50 1:42 sec/100m 2 55 00:01:49 6 77 00:41:08 14.6 m/hr 17 258 00:02:07 23 384 00:28:58 14:28 min/m
10 184 Vogeler KAYLIE 708 01:21:13 2 12 00:05:49 1:27 sec/100m 4 77 00:02:06 11 171 00:45:35 13.2 m/hr 9 91 00:01:22 19 325 00:26:23 13:11 min/m
11 191 Amber DAVIS 298 01:22:09 17 270 00:07:05 1:46 sec/100m 20 368 00:04:44 10 153 00:45:04 13.3 m/hr 26 479 00:06:23 4 69 00:18:56 9:27 min/m
12 198 Tiffany WHITLEY 672 01:22:53 15 255 00:07:01 1:45 sec/100m 21 383 00:04:53 13 214 00:47:29 12.6 m/hr 6 77 00:01:19 11 180 00:22:14 11:06 min/m
13 215 Cassie ANDERS 329 01:24:24 7 127 00:06:29 1:37 sec/100m 8 134 00:02:35 16 264 00:49:35 12.1 m/hr 4 57 00:01:11 13 260 00:24:36 12:17 min/m
14 235 Jacqueline EVESLAGE 431 01:26:24 4 51 00:06:10 1:32 sec/100m 18 358 00:04:37 14 230 00:48:12 12.4 m/hr 18 287 00:02:21 15 279 00:25:06 12:32 min/m
15 243 Hannah ZABEL 344 01:26:56 9 173 00:06:40 1:39 sec/100m 7 132 00:02:34 17 282 00:50:28 11.9 m/hr 10 100 00:01:22 18 308 00:25:53 12:56 min/m
16 252 Tatiana CARRILLO 526 01:27:25 24 418 00:07:48 1:56 sec/100m 23 403 00:05:09 18 290 00:50:49 11.8 m/hr 16 228 00:01:57 10 160 00:21:44 10:51 min/m
17 262 Mikala GUILLAUME 326 01:27:54 13 216 00:06:52 1:42 sec/100m 15 263 00:03:36 19 295 00:51:06 11.7 m/hr 5 65 00:01:14 16 280 00:25:08 12:33 min/m
18 270 Crysty MROCZENSKI 219 01:28:30 19 277 00:07:07 1:46 sec/100m 19 362 00:04:40 15 254 00:48:59 12.3 m/hr 19 307 00:02:26 17 289 00:25:20 12:39 min/m
19 288 Alexia SANCHEZ 289 01:29:36 3 24 00:06:00 1:29 sec/100m 11 181 00:02:57 21 359 00:55:02 10.9 m/hr 12 157 00:01:37 12 242 00:24:01 12:00 min/m
20 303 Chrissy WIND 650 01:31:00 18 275 00:07:06 1:46 sec/100m 12 213 00:03:08 24 383 00:58:29 10.3 m/hr 8 83 00:01:20 8 132 00:20:59 10:29 min/m
21 333 Samantha QUILLMAN 71 01:35:08 27 483 00:09:23 2:20 sec/100m 24 438 00:06:04 12 212 00:47:27 12.6 m/hr 21 341 00:02:46 24 396 00:29:30 14:44 min/m
22 348 Natalie ZAMUDIO 249 01:37:21 14 222 00:06:53 1:43 sec/100m 13 216 00:03:09 22 362 00:55:24 10.8 m/hr 25 444 00:04:04 22 362 00:27:53 13:56 min/m
23 387 Camarie HANSEN 269 01:41:59 21 325 00:07:19 1:49 sec/100m 26 475 00:07:57 20 304 00:51:39 11.6 m/hr 23 402 00:03:24 25 432 00:31:43 15:51 min/m
24 411 Tami WHITSON 627 01:45:49 22 351 00:07:26 1:51 sec/100m 17 313 00:04:01 23 370 00:56:13 10.7 m/hr 7 80 00:01:19 27 482 00:36:50 18:24 min/m
25 440 Rachel GLEITMAN 381 01:50:20 16 256 00:07:02 1:45 sec/100m 22 385 00:04:53 25 451 01:07:49 8.8 m/hr 22 397 00:03:22 20 346 00:27:17 13:38 min/m
26 454 Sarah DERICHS 662 01:54:39 25 473 00:08:57 2:14 sec/100m 25 448 00:06:16 26 453 01:08:00 8.8 m/hr 24 431 00:03:53 21 353 00:27:35 13:47 min/m
27 489 Dusti GILLIS 618 02:10:00 26 481 00:09:13 2:18 sec/100m 27 489 00:10:01 27 473 01:11:44 8.4 m/hr 20 338 00:02:46 26 478 00:36:18 18:08 min/m
Ages 30 - 34
1 8 Rita STROOBANDT 265 01:01:38 3 28 00:06:03 1:30 sec/100m 1 20 00:01:19 3 28 00:37:20 16.1 m/hr 3 15 00:00:50 4 15 00:16:09 8:04 min/m
2 10 Grace PETRY 17 01:01:42 20 147 00:06:33 1:38 sec/100m 9 69 00:02:01 2 16 00:36:09 16.6 m/hr 21 154 00:01:37 1 4 00:15:24 7:41 min/m
3 13 Rachel PEPLINSKI 145 01:02:14 23 166 00:06:38 1:39 sec/100m 5 51 00:01:47 1 11 00:35:10 17.1 m/hr 17 113 00:01:26 5 33 00:17:15 8:37 min/m
4 19 Melissa MCCABE 19 01:04:03 6 49 00:06:09 1:32 sec/100m 18 154 00:02:45 4 44 00:38:31 15.6 m/hr 2 14 00:00:49 3 11 00:15:51 7:55 min/m
5 22 Jessica ABERNETHY 238 01:04:42 5 45 00:06:08 1:31 sec/100m 2 28 00:01:27 6 66 00:40:24 14.9 m/hr 4 20 00:00:54 2 10 00:15:51 7:55 min/m
6 31 Jeanie YEN 336 01:06:32 4 35 00:06:05 1:31 sec/100m 7 64 00:01:57 5 56 00:39:40 15.1 m/hr 6 28 00:01:02 10 46 00:17:50 8:54 min/m
7 54 Katie WANG 282 01:10:15 2 26 00:06:02 1:30 sec/100m 19 157 00:02:48 10 104 00:42:22 14.2 m/hr 19 148 00:01:35 7 37 00:17:31 8:45 min/m
8 58 Anna SHEA 300 01:10:39 44 345 00:07:24 1:50 sec/100m 3 35 00:01:34 13 111 00:42:40 14.1 m/hr 1 12 00:00:48 11 50 00:18:15 9:07 min/m
9 60 Mimi RIVERS 459 01:11:07 30 200 00:06:48 1:41 sec/100m 29 229 00:03:18 7 79 00:41:10 14.6 m/hr 12 66 00:01:14 12 59 00:18:38 9:18 min/m
10 62 Sarah SNOWDEN-MIDDLETON 649 01:11:28 14 97 00:06:23 1:35 sec/100m 6 57 00:01:49 14 113 00:42:47 14.0 m/hr 13 71 00:01:16 15 80 00:19:15 9:37 min/m
11 79 Regina SPRUTH 504 01:12:53 33 228 00:06:55 1:43 sec/100m 17 125 00:02:29 12 108 00:42:31 14.1 m/hr 38 281 00:02:18 13 61 00:18:42 9:20 min/m
12 80 Melissa RICHARDS 253 01:12:53 35 239 00:06:57 1:44 sec/100m 16 110 00:02:21 11 105 00:42:23 14.2 m/hr 27 244 00:02:02 14 76 00:19:12 9:35 min/m
13 90 Terrell KNIGHT 413 01:13:44 27 181 00:06:44 1:40 sec/100m 20 158 00:02:49 22 166 00:45:29 13.2 m/hr 18 122 00:01:27 6 34 00:17:17 8:38 min/m
14 100 Jennifer WILLIAMS 204 01:15:24 9 72 00:06:17 1:34 sec/100m 12 93 00:02:12 30 232 00:48:13 12.4 m/hr 9 54 00:01:10 8 39 00:17:35 8:47 min/m
15 102 Heather MCNEIL 446 01:15:29 15 98 00:06:23 1:35 sec/100m 32 246 00:03:29 23 169 00:45:34 13.2 m/hr 37 276 00:02:17 9 45 00:17:48 8:53 min/m
16 103 Jenny ADDANTE 154 01:15:38 26 179 00:06:44 1:40 sec/100m 28 227 00:03:18 15 129 00:43:37 13.8 m/hr 15 99 00:01:22 22 121 00:20:39 10:19 min/m
17 104 Melissa NORTON 280 01:15:41 39 278 00:07:07 1:46 sec/100m 4 43 00:01:41 24 190 00:46:22 12.9 m/hr 8 32 00:01:03 17 89 00:19:30 9:44 min/m
18 107 Kristin ROBBINS 322 01:15:57 1 6 00:05:45 1:26 sec/100m 47 354 00:04:35 8 96 00:42:08 14.2 m/hr 32 261 00:02:08 27 152 00:21:24 10:41 min/m
19 119 Sarah MONTOYA-FOGLESONG 357 01:16:57 40 285 00:07:08 1:46 sec/100m 38 292 00:03:50 9 97 00:42:08 14.2 m/hr 22 194 00:01:47 32 174 00:22:06 11:02 min/m
20 125 Melissa BUREK 26 01:17:14 17 119 00:06:27 1:36 sec/100m 15 104 00:02:18 17 143 00:44:19 13.5 m/hr 29 251 00:02:04 33 176 00:22:07 11:03 min/m
21 126 Katherine BOYD 349 01:17:15 21 150 00:06:34 1:38 sec/100m 26 211 00:03:07 20 163 00:45:27 13.2 m/hr 20 153 00:01:36 21 117 00:20:33 10:16 min/m
22 127 Theresa DOWNER 334 01:17:18 34 233 00:06:56 1:43 sec/100m 22 179 00:02:57 19 158 00:45:21 13.2 m/hr 43 326 00:02:40 16 86 00:19:26 9:42 min/m
23 142 Becky GIBSON 163 01:18:51 18 124 00:06:29 1:37 sec/100m 27 214 00:03:09 16 136 00:44:01 13.6 m/hr 35 267 00:02:10 38 213 00:23:04 11:31 min/m
24 147 Courtney ALLEAUME 121 01:19:06 7 62 00:06:13 1:33 sec/100m 37 279 00:03:44 27 217 00:47:41 12.6 m/hr 5 26 00:01:01 20 114 00:20:30 10:14 min/m
25 175 Alanna TATE 153 01:20:43 28 195 00:06:47 1:41 sec/100m 10 88 00:02:09 33 275 00:50:12 12.0 m/hr 30 255 00:02:06 18 90 00:19:32 9:45 min/m
26 183 Simone LOOS 27 01:21:07 24 170 00:06:39 1:39 sec/100m 8 66 00:01:57 25 194 00:46:36 12.9 m/hr 7 29 00:01:02 41 270 00:24:54 12:26 min/m
27 185 Samantha FUENTES 223 01:21:27 12 90 00:06:20 1:34 sec/100m 23 182 00:02:57 26 202 00:47:05 12.7 m/hr 40 295 00:02:24 36 196 00:22:42 11:20 min/m
28 223 Lorina STEIGEL 523 01:25:22 45 348 00:07:24 1:50 sec/100m 49 397 00:05:02 18 157 00:45:17 13.3 m/hr 55 469 00:05:02 35 195 00:22:39 11:19 min/m
29 232 Heather PATE 475 01:26:13 42 318 00:07:17 1:49 sec/100m 24 197 00:03:02 35 277 00:50:15 11.9 m/hr 25 219 00:01:53 39 237 00:23:47 11:53 min/m
30 236 Pamela KNOELLER 388 01:26:29 8 64 00:06:13 1:33 sec/100m 48 359 00:04:37 29 231 00:48:12 12.4 m/hr 39 290 00:02:22 43 278 00:25:06 12:32 min/m
31 238 Diana LOPEZ 477 01:26:43 11 84 00:06:19 1:34 sec/100m 36 274 00:03:41 42 346 00:54:09 11.1 m/hr 16 112 00:01:26 25 143 00:21:10 10:34 min/m
32 240 Jennifer LLOYD 308 01:26:46 29 196 00:06:48 1:41 sec/100m 25 207 00:03:06 39 324 00:52:33 11.4 m/hr 47 387 00:03:16 24 138 00:21:05 10:32 min/m
33 253 Rosien THORNOCK 360 01:27:30 10 83 00:06:19 1:34 sec/100m 35 268 00:03:39 44 354 00:54:40 11.0 m/hr 14 82 00:01:20 30 157 00:21:33 10:46 min/m
34 259 Megan SHINDLER 215 01:27:47 43 331 00:07:19 1:49 sec/100m 21 177 00:02:57 31 235 00:48:22 12.4 m/hr 45 335 00:02:43 48 328 00:26:28 13:13 min/m
35 265 Sally BATISLAONG 453 01:28:14 38 258 00:07:02 1:45 sec/100m 13 94 00:02:12 43 352 00:54:32 11.0 m/hr 26 223 00:01:56 34 192 00:22:34 11:16 min/m
36 269 Rachel BRUCE 52 01:28:27 52 417 00:07:48 1:56 sec/100m 52 416 00:05:41 37 301 00:51:24 11.7 m/hr 41 310 00:02:31 23 137 00:21:05 10:32 min/m
37 271 Rut ONTIVEROS 478 01:28:30 16 106 00:06:25 1:36 sec/100m 31 234 00:03:20 40 326 00:52:42 11.4 m/hr 10 55 00:01:10 42 272 00:24:55 12:27 min/m
38 273 Jessica ROBERTSON 651 01:28:46 19 126 00:06:29 1:37 sec/100m 43 301 00:03:55 28 227 00:48:02 12.5 m/hr 50 439 00:03:59 46 324 00:26:23 13:11 min/m
39 275 Jade PODUSKA 652 01:28:50 22 153 00:06:35 1:38 sec/100m 40 296 00:03:52 32 267 00:49:49 12.0 m/hr 36 271 00:02:15 45 323 00:26:22 13:10 min/m
40 283 Jenna GELGAND 251 01:29:23 54 442 00:08:11 2:02 sec/100m 14 103 00:02:18 21 165 00:45:28 13.2 m/hr 48 404 00:03:27 53 405 00:30:01 15:00 min/m
41 300 Kellye CASEY 536 01:30:42 25 178 00:06:43 1:40 sec/100m 41 298 00:03:52 46 373 00:56:31 10.6 m/hr 33 262 00:02:09 28 154 00:21:29 10:44 min/m
42 301 Stephanie MCDANIEL 562 01:30:47 31 205 00:06:49 1:42 sec/100m 39 294 00:03:52 47 374 00:56:33 10.6 m/hr 31 260 00:02:08 29 155 00:21:29 10:44 min/m
43 307 Courtney MORTON 507 01:31:14 36 251 00:07:00 1:44 sec/100m 45 325 00:04:10 36 281 00:50:25 11.9 m/hr 28 250 00:02:04 50 354 00:27:37 13:48 min/m
44 309 Genevieve LE 385 01:31:45 56 484 00:09:43 2:25 sec/100m 11 90 00:02:10 45 358 00:55:00 10.9 m/hr 34 263 00:02:09 37 199 00:22:45 11:22 min/m
45 322 Gabrielle BERNARD 352 01:33:35 50 406 00:07:42 1:55 sec/100m 46 347 00:04:31 34 276 00:50:14 11.9 m/hr 57 480 00:06:24 40 266 00:24:45 12:22 min/m
46 337 Corinne BERO 13 01:36:00 32 217 00:06:52 1:42 sec/100m 53 457 00:06:39 38 309 00:51:54 11.6 m/hr 53 457 00:04:28 44 315 00:26:09 13:04 min/m
47 343 Olivia COSBY 460 01:36:36 51 410 00:07:45 1:56 sec/100m 30 231 00:03:19 41 344 00:54:03 11.1 m/hr 11 63 00:01:13 54 409 00:30:19 15:09 min/m
48 347 Azaret VILLEDA 600 01:37:16 55 478 00:08:59 2:14 sec/100m 50 406 00:05:18 48 378 00:57:37 10.4 m/hr 52 449 00:04:14 26 144 00:21:11 10:35 min/m
49 372 Kendra METZLER 445 01:39:49 13 91 00:06:20 1:34 sec/100m 34 255 00:03:34 50 433 01:05:23 9.2 m/hr 42 312 00:02:32 31 171 00:22:02 11:00 min/m
50 407 Winifred YU 64 01:44:25 47 375 00:07:31 1:52 sec/100m 54 468 00:07:20 53 438 01:06:15 9.1 m/hr 49 420 00:03:42 19 92 00:19:39 9:49 min/m
51 410 Amber THRELFALL 309 01:45:36 48 385 00:07:34 1:53 sec/100m 33 252 00:03:32 49 418 01:03:39 9.4 m/hr 51 448 00:04:09 49 335 00:26:43 13:21 min/m
52 429 Tessa KLINKHARDT 160 01:48:33                                    
53 436 Erica MAHON 366 01:49:40 53 439 00:08:09 2:02 sec/100m 42 300 00:03:54 51 434 01:05:27 9.2 m/hr 46 371 00:03:03 52 390 00:29:10 14:34 min/m
54 445 Maria HAPPE 480 01:52:13 41 294 00:07:09 1:47 sec/100m 56 488 00:09:56 54 442 01:06:55 9.0 m/hr 23 204 00:01:50 47 326 00:26:25 13:12 min/m
55 447 Leah SCHNEIDER 68 01:52:45 46 374 00:07:31 1:52 sec/100m 51 413 00:05:31 52 437 01:06:01 9.1 m/hr 56 471 00:05:08 51 378 00:28:36 14:17 min/m
56 471 Karen CHEN 393 02:01:10 49 391 00:07:37 1:54 sec/100m 55 477 00:08:16 55 445 01:07:23 8.9 m/hr 54 459 00:04:33 55 454 00:33:22 16:40 min/m
57 479 Jillian BECK 541 02:03:29 37 257 00:07:02 1:45 sec/100m 44 317 00:04:04 56 476 01:13:30 8.2 m/hr 24 205 00:01:50 56 483 00:37:05 18:32 min/m
58 500 Christine LUCIANO 246 02:51:34 57 491 00:11:35 2:53 sec/100m 57 493 00:10:29 57 496 01:42:25 5.9 m/hr 44 333 00:02:42 57 495 00:44:26 22:12 min/m
Ages 35 - 39
1 5 Angela LANGFORD 32 00:59:59 1 1 00:05:16 1:18 sec/100m 2 21 00:01:19 3 15 00:36:02 16.7 m/hr 25 85 00:01:20 3 13 00:16:03 8:01 min/m
2 11 Patricia PONSART 678 01:02:09 23 89 00:06:20 1:34 sec/100m 3 27 00:01:26 8 27 00:37:17 16.1 m/hr 11 43 00:01:07 2 12 00:16:00 7:59 min/m
3 12 Sunday THOMPSON 31 01:02:09 3 9 00:05:48 1:26 sec/100m 5 30 00:01:29 4 19 00:36:39 16.4 m/hr 10 41 00:01:06 11 29 00:17:10 8:34 min/m
4 15 Christine ESSER 333 01:02:56 26 114 00:06:27 1:36 sec/100m 6 32 00:01:29 10 32 00:37:30 16.0 m/hr 13 47 00:01:08 4 17 00:16:25 8:12 min/m
5 16 Andrea FARRELL 55 01:03:02 5 20 00:05:56 1:28 sec/100m 4 29 00:01:29 12 34 00:37:44 15.9 m/hr 6 24 00:00:58 10 25 00:16:58 8:28 min/m
6 21 Jennifer HAYES 99 01:04:25 46 202 00:06:48 1:41 sec/100m 12 54 00:01:49 5 20 00:36:49 16.3 m/hr 27 96 00:01:22 13 41 00:17:39 8:49 min/m
7 25 Courtney QUALLS 302 01:05:06 42 189 00:06:46 1:41 sec/100m 10 41 00:01:40 2 8 00:33:49 17.7 m/hr 55 216 00:01:53 38 133 00:21:01 10:30 min/m
8 27 Emily TUCKER 354 01:05:42 38 171 00:06:40 1:39 sec/100m 57 269 00:03:40 13 36 00:37:53 15.8 m/hr 2 13 00:00:49 6 20 00:16:42 8:20 min/m
9 29 Cristina CALDWELL 94 01:06:15 13 42 00:06:07 1:31 sec/100m 8 36 00:01:34 6 25 00:37:13 16.1 m/hr 45 180 00:01:44 23 93 00:19:40 9:49 min/m
10 30 Kristen SOLOMON 439 01:06:31 47 203 00:06:48 1:41 sec/100m 49 237 00:03:23 9 29 00:37:24 16.0 m/hr 9 36 00:01:05 14 47 00:17:52 8:55 min/m
11 38 Nieves ALEXIS 702 01:07:49 14 46 00:06:08 1:31 sec/100m 9 37 00:01:35 28 132 00:43:43 13.7 m/hr 3 16 00:00:50 1 6 00:15:36 7:47 min/m
12 44 Elise BOLDT 25 01:08:44 22 88 00:06:20 1:34 sec/100m 13 65 00:01:57 7 26 00:37:14 16.1 m/hr 66 264 00:02:09 40 139 00:21:05 10:32 min/m
13 46 Melinda GARDNER 348 01:08:50 2 4 00:05:38 1:24 sec/100m 14 81 00:02:07 25 125 00:43:29 13.8 m/hr 18 62 00:01:12 5 18 00:16:25 8:12 min/m
14 59 Bridget PETROWSKY 458 01:10:44 27 116 00:06:27 1:36 sec/100m 36 185 00:02:58 23 120 00:43:17 13.9 m/hr 17 59 00:01:12 8 23 00:16:52 8:25 min/m
15 69 Sara BODNAR 170 01:12:29 31 148 00:06:34 1:38 sec/100m 7 33 00:01:30 22 119 00:43:12 13.9 m/hr 36 136 00:01:30 26 99 00:19:45 9:52 min/m
16 72 Andrea TILLEY 602 01:12:35 19 80 00:06:18 1:34 sec/100m 24 115 00:02:22 27 131 00:43:43 13.7 m/hr 7 25 00:01:00 20 78 00:19:14 9:36 min/m
17 77 Sara ATTEBURY 87 01:12:51 37 169 00:06:38 1:39 sec/100m 27 138 00:02:37 14 47 00:38:58 15.4 m/hr 84 357 00:02:53 49 163 00:21:46 10:52 min/m
18 83 Heidi HOUDEK 525 01:13:06 29 140 00:06:31 1:37 sec/100m 32 165 00:02:52 29 139 00:44:08 13.6 m/hr 8 31 00:01:03 16 58 00:18:34 9:16 min/m
19 84 Cara GILBREATH 88 01:13:08 16 60 00:06:12 1:32 sec/100m 66 287 00:03:48 24 124 00:43:27 13.8 m/hr 76 313 00:02:32 12 31 00:17:11 8:35 min/m
20 87 Sally TWELLMAN 228 01:13:33 6 22 00:05:58 1:29 sec/100m 29 152 00:02:44 20 112 00:42:42 14.1 m/hr 37 138 00:01:31 36 122 00:20:40 10:19 min/m
21 91 Amelia SOLANO 144 01:13:51 48 204 00:06:49 1:42 sec/100m 42 203 00:03:04 11 33 00:37:37 16.0 m/hr 57 220 00:01:54 68 257 00:24:30 12:14 min/m
22 101 Ronda BIONDILLO 350 01:15:27 61 245 00:06:58 1:44 sec/100m 11 52 00:01:48 35 152 00:44:53 13.4 m/hr 32 119 00:01:27 33 112 00:20:23 10:11 min/m
23 105 Renee MEYER 201 01:15:49 45 199 00:06:48 1:41 sec/100m 41 198 00:03:02 18 93 00:41:52 14.3 m/hr 52 210 00:01:51 52 183 00:22:18 11:08 min/m
24 106 Jessica COWEN 12 01:15:53 70 273 00:07:05 1:46 sec/100m 45 217 00:03:09 17 87 00:41:35 14.4 m/hr 81 331 00:02:41 46 151 00:21:24 10:41 min/m
25 108 Zia LOWE 470 01:16:01 17 69 00:06:15 1:33 sec/100m 60 273 00:03:41 21 114 00:42:50 14.0 m/hr 91 389 00:03:18 29 106 00:19:59 9:59 min/m
26 113 Karen DIAZGRANADOS 101 01:16:28 67 266 00:07:04 1:45 sec/100m 37 188 00:02:59 15 76 00:41:04 14.6 m/hr 90 383 00:03:13 51 177 00:22:10 11:04 min/m
27 114 Kimberly PETRILA 137 01:16:30 20 81 00:06:19 1:34 sec/100m 74 310 00:04:01 37 168 00:45:32 13.2 m/hr 40 162 00:01:40 18 72 00:19:01 9:30 min/m
28 117 Andrea TENBRINK 524 01:16:31 72 286 00:07:08 1:46 sec/100m 83 353 00:04:34 16 84 00:41:24 14.5 m/hr 100 424 00:03:44 25 97 00:19:42 9:50 min/m
29 122 Adrianne MORALES 216 01:16:59 8 30 00:06:03 1:30 sec/100m 55 258 00:03:35 45 207 00:47:20 12.7 m/hr 20 67 00:01:14 17 63 00:18:48 9:24 min/m
30 140 Molly PITTS 346 01:18:37 52 221 00:06:53 1:43 sec/100m 38 191 00:03:00 52 229 00:48:05 12.5 m/hr 24 84 00:01:20 21 83 00:19:20 9:39 min/m
31 141 Sarah WASAFF 531 01:18:38 28 121 00:06:28 1:36 sec/100m 15 86 00:02:08 49 219 00:47:41 12.6 m/hr 26 89 00:01:21 39 134 00:21:01 10:30 min/m
32 144 Clarissa TALBERT 192 01:18:55 107 438 00:08:07 2:01 sec/100m 59 271 00:03:41 31 142 00:44:18 13.5 m/hr 46 188 00:01:46 41 140 00:21:06 10:32 min/m
33 145 Jill MOTAL 324 01:18:57 12 39 00:06:06 1:31 sec/100m 63 281 00:03:44 33 145 00:44:22 13.5 m/hr 58 222 00:01:56 57 205 00:22:51 11:25 min/m
34 152 Rachel DEMOSS 140 01:19:26 18 71 00:06:16 1:33 sec/100m 62 278 00:03:44 39 183 00:46:05 13.0 m/hr 77 320 00:02:35 37 127 00:20:48 10:23 min/m
35 153 Claire RIPOLL 492 01:19:26 24 108 00:06:25 1:36 sec/100m 72 308 00:03:58 38 177 00:45:45 13.1 m/hr 65 259 00:02:08 44 147 00:21:13 10:36 min/m
36 154 Hannah GROTHUES 62 01:19:28 69 271 00:07:05 1:46 sec/100m 73 309 00:04:00 36 164 00:45:27 13.2 m/hr 74 303 00:02:26 34 116 00:20:32 10:15 min/m
37 159 Cory LAGO 418 01:19:36 89 353 00:07:27 1:51 sec/100m 20 111 00:02:21 58 255 00:49:03 12.2 m/hr 19 64 00:01:13 22 91 00:19:33 9:46 min/m
38 162 Heidi ATKINSON 441 01:19:46 68 268 00:07:05 1:46 sec/100m 34 170 00:02:54 26 128 00:43:37 13.8 m/hr 89 368 00:02:59 61 219 00:23:14 11:36 min/m
39 164 Thelma GIPSON 479 01:19:50 58 238 00:06:57 1:44 sec/100m 50 242 00:03:26 47 215 00:47:34 12.6 m/hr 23 79 00:01:19 35 119 00:20:36 10:17 min/m
40 168 Bobbi-Jo MIGLIORE 529 01:20:06 65 254 00:07:01 1:45 sec/100m 89 391 00:04:57 46 213 00:47:28 12.6 m/hr 33 130 00:01:28 19 77 00:19:13 9:36 min/m
41 170 Wendy SANCHEZ 340 01:20:10 40 182 00:06:45 1:41 sec/100m 30 161 00:02:51 72 321 00:52:23 11.5 m/hr 22 70 00:01:16 9 24 00:16:58 8:28 min/m
42 171 Jasmine ANDERSON 143 01:20:19 50 218 00:06:53 1:43 sec/100m 22 113 00:02:22 42 199 00:46:52 12.8 m/hr 79 327 00:02:41 47 156 00:21:33 10:46 min/m
43 173 Becky SCHELFHOUT 485 01:20:23 54 229 00:06:55 1:43 sec/100m 43 208 00:03:07 60 258 00:49:11 12.2 m/hr 14 52 00:01:10 30 108 00:20:03 10:01 min/m
44 190 Sharon TAM 335 01:22:07 4 15 00:05:53 1:28 sec/100m 17 97 00:02:14 41 198 00:46:47 12.8 m/hr 21 68 00:01:15 77 311 00:25:59 12:59 min/m
45 193 Celine THIBAULT 547 01:22:25 113 485 00:09:43 2:25 sec/100m 1 18 00:01:16 43 203 00:47:06 12.7 m/hr 50 201 00:01:49 54 191 00:22:34 11:16 min/m
46 196 Elizabeth COLLUM 539 01:22:43 33 155 00:06:36 1:38 sec/100m 67 289 00:03:49 63 270 00:49:55 12.0 m/hr 15 56 00:01:11 45 148 00:21:14 10:36 min/m
47 199 Julie MASLOWSKY 434 01:22:54 36 162 00:06:37 1:39 sec/100m 64 285 00:03:47 34 150 00:44:41 13.4 m/hr 38 140 00:01:32 80 322 00:26:20 13:09 min/m
48 200 Irene DOOLING 552 01:22:57 10 36 00:06:05 1:31 sec/100m 61 277 00:03:43 82 367 00:55:31 10.8 m/hr 5 22 00:00:55 7 21 00:16:44 8:21 min/m
49 204 Dawn MASSEY 515 01:23:23 76 297 00:07:11 1:47 sec/100m 25 128 00:02:31 69 298 00:51:16 11.7 m/hr 1 7 00:00:46 48 159 00:21:41 10:50 min/m
50 210 Annemarie FITTERER 188 01:23:58 21 86 00:06:20 1:34 sec/100m 79 329 00:04:14 56 249 00:48:55 12.3 m/hr 64 256 00:02:07 53 189 00:22:25 11:12 min/m
51 213 Jessica ELKIN 161 01:24:05 87 344 00:07:23 1:50 sec/100m 71 307 00:03:57 54 238 00:48:29 12.4 m/hr 104 450 00:04:15 31 109 00:20:04 10:01 min/m
52 216 Heather SKOLD 553 01:24:26 62 246 00:06:58 1:44 sec/100m 53 248 00:03:30 65 292 00:50:52 11.8 m/hr 60 242 00:02:01 42 141 00:21:06 10:32 min/m
53 218 Chereese JOHNSON 374 01:24:49 92 360 00:07:29 1:52 sec/100m 52 244 00:03:26 50 223 00:47:54 12.5 m/hr 85 358 00:02:54 60 215 00:23:08 11:33 min/m
54 241 Marlo YOUDE 436 01:26:46 7 23 00:05:59 1:29 sec/100m 19 105 00:02:18 30 141 00:44:15 13.6 m/hr 86 360 00:02:55 99 428 00:31:20 15:39 min/m
55 242 Dacia TA 513 01:26:53 98 400 00:07:39 1:54 sec/100m 93 419 00:05:45 19 103 00:42:16 14.2 m/hr 107 464 00:04:42 82 331 00:26:33 13:16 min/m
56 245 Carey EPPES 680 01:27:01 41 185 00:06:45 1:41 sec/100m 90 392 00:05:00 67 296 00:51:07 11.7 m/hr 88 367 00:02:59 43 145 00:21:12 10:35 min/m
57 246 Tara TAYLOR 645 01:27:09 32 154 00:06:35 1:38 sec/100m 31 162 00:02:51 84 371 00:56:15 10.7 m/hr 51 203 00:01:49 24 94 00:19:40 9:49 min/m
58 247 Julia FREITAG 117 01:27:09 66 263 00:07:04 1:45 sec/100m 54 251 00:03:31 57 250 00:48:57 12.3 m/hr 28 101 00:01:23 79 319 00:26:15 13:07 min/m
59 248 Echo CARAWAY 293 01:27:14 35 161 00:06:37 1:39 sec/100m 48 226 00:03:18 73 322 00:52:25 11.5 m/hr 70 279 00:02:18 55 194 00:22:39 11:19 min/m
60 249 Jamie ARTMAN 50 01:27:14 85 335 00:07:20 1:49 sec/100m 35 178 00:02:57 55 246 00:48:48 12.3 m/hr 106 461 00:04:35 65 232 00:23:36 11:47 min/m
61 251 Emily MILLER 115 01:27:24 91 358 00:07:28 1:51 sec/100m 69 303 00:03:55 59 257 00:49:10 12.2 m/hr 92 396 00:03:22 62 226 00:23:32 11:45 min/m
62 256 Donna LIN 275 01:27:38 93 363 00:07:29 1:52 sec/100m 23 114 00:02:22 32 144 00:44:22 13.5 m/hr 111 486 00:07:16 78 316 00:26:12 13:05 min/m
63 261 Mary COLLINS 424 01:27:50 44 197 00:06:48 1:41 sec/100m 56 262 00:03:36 53 237 00:48:27 12.4 m/hr 101 432 00:03:54 71 281 00:25:08 12:33 min/m
64 268 Tiffany GARCIA 114 01:28:23 64 253 00:07:01 1:45 sec/100m 39 192 00:03:01 44 205 00:47:17 12.7 m/hr 4 21 00:00:55 96 407 00:30:11 15:05 min/m
65 279 Courtney WILLE 691 01:29:03 30 145 00:06:33 1:38 sec/100m 21 112 00:02:22 78 347 00:54:16 11.1 m/hr 72 293 00:02:23 63 227 00:23:32 11:45 min/m
66 281 Ashley CHRISTIAN 538 01:29:16 43 192 00:06:46 1:41 sec/100m 46 222 00:03:13 51 228 00:48:04 12.5 m/hr 48 193 00:01:47 94 395 00:29:29 14:44 min/m
67 282 Leann VATERLAUS 22 01:29:18 9 32 00:06:05 1:31 sec/100m 82 350 00:04:32 68 297 00:51:07 11.7 m/hr 67 269 00:02:13 74 290 00:25:23 12:41 min/m
68 287 Amanda ADAMITZ 196 01:29:35 83 317 00:07:17 1:49 sec/100m 65 286 00:03:47 75 329 00:52:52 11.4 m/hr 39 150 00:01:35 67 244 00:24:06 12:02 min/m
69 291 Amy GARDNER 411 01:29:48 59 241 00:06:58 1:44 sec/100m 84 364 00:04:42 74 323 00:52:29 11.4 m/hr 80 330 00:02:41 59 212 00:23:00 11:29 min/m
70 295 Brooke MALTHESEN 80 01:30:18 60 244 00:06:58 1:44 sec/100m 107 459 00:06:39 61 263 00:49:33 12.1 m/hr 110 485 00:06:49 32 111 00:20:19 10:09 min/m
71 297 Stephanie STEWART 455 01:30:24 82 313 00:07:16 1:48 sec/100m 87 376 00:04:49 62 269 00:49:52 12.0 m/hr 78 321 00:02:36 76 309 00:25:53 12:56 min/m
72 298 Emily ROBILLARD 558 01:30:25 100 407 00:07:43 1:55 sec/100m 40 193 00:03:01 64 280 00:50:25 11.9 m/hr 35 135 00:01:29 90 360 00:27:50 13:54 min/m
73 314 Traci BERMISS 640 01:32:41 112 469 00:08:53 2:13 sec/100m 16 92 00:02:12 71 311 00:51:55 11.6 m/hr 47 191 00:01:47 93 367 00:27:57 13:58 min/m
74 315 Stacey MIKESKA 471 01:32:51 79 304 00:07:13 1:48 sec/100m 58 270 00:03:40 86 382 00:58:02 10.3 m/hr 53 212 00:01:51 50 173 00:22:05 11:02 min/m
75 316 Elaine FAWCETT 521 01:32:51 80 306 00:07:14 1:48 sec/100m 76 315 00:04:03 77 345 00:54:04 11.1 m/hr 69 278 00:02:17 72 284 00:25:15 12:37 min/m
76 323 Laura WHITENER 260 01:33:37 86 337 00:07:20 1:49 sec/100m 81 336 00:04:22 70 299 00:51:21 11.7 m/hr 97 417 00:03:41 86 341 00:26:54 13:26 min/m
77 330 Marie STUCKY 250 01:34:46 15 53 00:06:10 1:32 sec/100m 28 149 00:02:43 83 369 00:55:48 10.8 m/hr 68 270 00:02:13 92 364 00:27:55 13:57 min/m
78 339 Kami BURGIN 491 01:36:11 81 307 00:07:14 1:48 sec/100m 106 454 00:06:31 89 390 00:59:05 10.2 m/hr 95 410 00:03:31 28 103 00:19:53 9:56 min/m
79 340 Jayme MEYER 343 01:36:21 11 37 00:06:06 1:31 sec/100m 47 225 00:03:17 90 397 00:59:54 10.0 m/hr 31 118 00:01:26 75 304 00:25:40 12:49 min/m
80 342 Ashley STEPHENSON 382 01:36:34 95 380 00:07:33 1:53 sec/100m 78 324 00:04:10 48 218 00:47:41 12.6 m/hr 75 305 00:02:26 107 462 00:34:46 17:22 min/m
81 351 Adriana ZAMUDIO 267 01:37:24 56 231 00:06:56 1:43 sec/100m 44 210 00:03:07 81 365 00:55:29 10.8 m/hr 103 442 00:04:01 91 363 00:27:53 13:56 min/m
82 358 Susan HEDGES 177 01:37:57 84 330 00:07:19 1:49 sec/100m 112 482 00:08:57 76 338 00:53:39 11.2 m/hr 108 472 00:05:17 56 200 00:22:46 11:22 min/m
83 367 Yubelly PEREZ 226 01:39:24 71 280 00:07:07 1:46 sec/100m 26 129 00:02:32 109 459 01:09:34 8.6 m/hr 41 164 00:01:41 15 56 00:18:32 9:15 min/m
84 368 Romy PARZICK 306 01:39:32 25 110 00:06:26 1:36 sec/100m 75 314 00:04:01 106 446 01:07:30 8.9 m/hr 49 197 00:01:48 27 102 00:19:49 9:54 min/m
85 374 Tiffany GHAHARIE 197 01:40:56 94 376 00:07:32 1:52 sec/100m 70 305 00:03:56 94 414 01:02:45 9.6 m/hr 42 169 00:01:42 69 273 00:25:03 12:31 min/m
86 376 Melissa ZAVALA 486 01:41:15 90 356 00:07:28 1:51 sec/100m 33 166 00:02:52 101 428 01:05:00 9.2 m/hr 59 224 00:01:56 66 241 00:24:01 12:00 min/m
87 377 Elizabeth KOBERMANN 86 01:41:20 39 180 00:06:44 1:40 sec/100m 98 431 00:05:57 91 407 01:00:38 9.9 m/hr 87 366 00:02:59 70 277 00:25:05 12:32 min/m
88 379 Krystal BOWIE 540 01:41:24 55 230 00:06:56 1:43 sec/100m 51 243 00:03:26 95 415 01:02:53 9.5 m/hr 16 58 00:01:11 87 343 00:26:59 13:29 min/m
89 390 Kristin DAVENPORT-CLARK 555 01:42:11 53 226 00:06:55 1:43 sec/100m 99 433 00:05:59 66 294 00:51:00 11.8 m/hr 109 475 00:05:57 103 442 00:32:21 16:10 min/m
90 395 Sujata CAMP 530 01:42:58 105 423 00:07:54 1:58 sec/100m 100 434 00:06:01 79 360 00:55:06 10.9 m/hr 96 414 00:03:35 97 410 00:30:24 15:11 min/m
91 396 Kristin GILMORE 490 01:42:59 78 300 00:07:11 1:47 sec/100m 104 451 00:06:25 88 388 00:58:57 10.2 m/hr 98 419 00:03:42 85 339 00:26:45 13:22 min/m
92 398 Theresa BEDINGHAUS 559 01:43:02 110 458 00:08:28 2:06 sec/100m 77 320 00:04:06 85 375 00:56:42 10.6 m/hr 54 215 00:01:52 102 435 00:31:56 15:57 min/m
93 400 Courtney RIDER 5 01:43:19 96 394 00:07:37 1:54 sec/100m 101 442 00:06:09 80 364 00:55:29 10.8 m/hr 43 176 00:01:43 104 443 00:32:22 16:10 min/m
94 404 Erin ARNOLD 386 01:44:04 57 232 00:06:56 1:43 sec/100m 88 379 00:04:50 98 422 01:04:10 9.4 m/hr 29 103 00:01:24 84 338 00:26:45 13:22 min/m
95 405 Crystal VINAL 387 01:44:06 63 247 00:06:59 1:44 sec/100m 86 375 00:04:49 99 423 01:04:12 9.3 m/hr 30 104 00:01:25 83 336 00:26:45 13:22 min/m
96 409 Christina MUNIZ 210 01:45:12 114 496 00:17:03 4:15 sec/100m 96 426 00:05:54 40 195 00:46:39 12.9 m/hr 102 434 00:03:57 100 431 00:31:42 15:50 min/m
97 415 Kerry SEMBERA 581 01:46:25 73 287 00:07:09 1:47 sec/100m 114 486 00:09:27 100 427 01:04:54 9.2 m/hr 63 254 00:02:04 58 207 00:22:53 11:26 min/m
98 417 Emily HORTON 518 01:46:30 49 209 00:06:50 1:42 sec/100m 18 101 00:02:17 111 466 01:10:23 8.5 m/hr 44 178 00:01:44 73 286 00:25:18 12:38 min/m
99 422 Suzanne WILLIAMS 377 01:47:23 34 156 00:06:36 1:38 sec/100m 68 295 00:03:52 108 455 01:08:07 8.8 m/hr 12 46 00:01:07 89 356 00:27:43 13:51 min/m
100 424 Yareth COUTIO 653 01:47:28 104 420 00:07:52 1:57 sec/100m 94 423 00:05:47 97 421 01:04:00 9.4 m/hr 94 401 00:03:23 81 327 00:26:27 13:13 min/m
101 426 Elisha STEELE 390 01:48:21 109 454 00:08:24 2:05 sec/100m 85 365 00:04:42 110 461 01:09:41 8.6 m/hr 61 245 00:02:02 64 230 00:23:35 11:47 min/m
102 433 Sunny KROCKA 85 01:49:12 77 299 00:07:11 1:47 sec/100m 102 445 00:06:11 93 412 01:02:28 9.6 m/hr 71 280 00:02:18 98 426 00:31:06 15:32 min/m
103 434 Stephanie MCCARTNEY 57 01:49:24 108 449 00:08:15 2:03 sec/100m 103 447 00:06:15 92 408 01:00:59 9.8 m/hr 34 134 00:01:29 105 444 00:32:28 16:13 min/m
104 439 Paula GUERRERO 639 01:50:17 88 346 00:07:24 1:50 sec/100m 91 409 00:05:25 104 436 01:05:42 9.1 m/hr 62 248 00:02:03 95 403 00:29:45 14:52 min/m
105 453 Lajeanna MUNDELL 184 01:54:30 51 219 00:06:53 1:43 sec/100m 108 461 00:06:43 102 429 01:05:07 9.2 m/hr 112 491 00:08:25 88 349 00:27:24 13:41 min/m
106 458 Nora ARZOLA 69 01:55:25 106 431 00:08:02 2:00 sec/100m 109 471 00:07:35 87 384 00:58:56 10.2 m/hr 93 399 00:03:22 111 484 00:37:32 18:45 min/m
107 462 Julie DOAN 567 01:58:31 101 408 00:07:43 1:55 sec/100m 105 453 00:06:29 96 419 01:03:43 9.4 m/hr 82 337 00:02:44 112 486 00:37:55 18:57 min/m
108 463 Crystal ARTHUR 10 01:58:55 97 399 00:07:39 1:54 sec/100m 95 424 00:05:53 103 430 01:05:09 9.2 m/hr 113 492 00:08:25 101 433 00:31:52 15:55 min/m
109 472 Denise CHEN 392 02:01:13 99 405 00:07:40 1:54 sec/100m 110 478 00:08:18 107 448 01:07:36 8.9 m/hr 105 451 00:04:18 106 455 00:33:22 16:40 min/m
110 477 Shannon HOLLAND 576 02:01:34 102 413 00:07:46 1:56 sec/100m 111 480 00:08:42 1 5 00:33:15 18.1 m/hr 114 496 00:33:47 113 487 00:38:06 19:02 min/m
111 478 Stacy HUGHES 578 02:03:11 103 415 00:07:48 1:56 sec/100m 113 484 00:09:04 105 443 01:07:00 9.0 m/hr 99 421 00:03:43 109 473 00:35:38 17:48 min/m
112 487 Ava ROBLES 66 02:07:39 74 289 00:07:09 1:47 sec/100m 80 330 00:04:14 112 486 01:17:49 7.7 m/hr 73 294 00:02:23 110 476 00:36:07 18:03 min/m
113 494 Clare HORADAM 590 02:18:31 75 292 00:07:09 1:47 sec/100m 97 428 00:05:56 113 491 01:28:21 6.8 m/hr 56 218 00:01:53 108 464 00:35:13 17:36 min/m
114 498 Shawn PETERSON 620 02:33:47 111 467 00:08:49 2:12 sec/100m 92 411 00:05:26 114 493 01:31:45 6.5 m/hr 83 353 00:02:52 114 496 00:44:58 22:28 min/m
115 499 Shelly GORE EDWARDS 598 02:39:44 115 498 02:13:04 33:15 sec/100m                            
Ages 40 - 44
1 9 Jenny PATTON 132 01:01:42 2 16 00:05:54 1:28 sec/100m 4 11 00:01:06 5 30 00:37:29 16.0 m/hr 2 37 00:01:05 2 16 00:16:09 8:04 min/m
2 20 Carrie BRYAN 494 01:04:14 24 82 00:06:19 1:34 sec/100m 39 171 00:02:54 7 37 00:37:54 15.8 m/hr 23 131 00:01:29 1 7 00:15:41 7:50 min/m
3 23 Heather VAZ 83 01:04:51 19 65 00:06:14 1:33 sec/100m 15 68 00:02:01 3 17 00:36:23 16.5 m/hr 32 172 00:01:43 8 57 00:18:32 9:15 min/m
4 28 Brandi WATKINS 268 01:05:52 31 115 00:06:27 1:36 sec/100m 14 67 00:02:01 4 21 00:36:53 16.3 m/hr 28 152 00:01:35 12 70 00:18:59 9:29 min/m
5 34 Nicole FLORES 107 01:07:18 46 198 00:06:48 1:41 sec/100m 8 26 00:01:25 8 38 00:37:55 15.8 m/hr 33 177 00:01:44 20 88 00:19:28 9:43 min/m
6 36 Katie ROBILLARD 247 01:07:34 9 41 00:06:06 1:31 sec/100m 35 145 00:02:41 9 41 00:38:20 15.7 m/hr 64 334 00:02:42 6 44 00:17:46 8:52 min/m
7 37 Amanda FEYRER 468 01:07:41 42 163 00:06:37 1:39 sec/100m 7 23 00:01:21 2 9 00:34:17 17.5 m/hr 92 462 00:04:38 27 129 00:20:50 10:24 min/m
8 41 D. FARRAR 47 01:08:09 17 57 00:06:11 1:32 sec/100m 6 22 00:01:21 12 52 00:39:11 15.3 m/hr 47 257 00:02:07 17 82 00:19:20 9:39 min/m
9 42 Wendy GATES 685 01:08:17 6 34 00:06:05 1:31 sec/100m 10 34 00:01:33 14 58 00:39:46 15.1 m/hr 43 236 00:02:00 10 66 00:18:55 9:27 min/m
10 47 Jennifer COURY 417 01:09:00 83 379 00:07:33 1:53 sec/100m 34 144 00:02:40 16 63 00:40:21 14.9 m/hr 8 73 00:01:17 4 30 00:17:11 8:35 min/m
11 48 Kristen WEATHERS 193 01:09:10 15 54 00:06:10 1:32 sec/100m 32 139 00:02:37 15 60 00:40:03 15.0 m/hr 45 238 00:02:00 7 53 00:18:21 9:10 min/m
12 49 Laura METCALF 67 01:09:11 21 70 00:06:15 1:33 sec/100m 41 180 00:02:57 10 42 00:38:21 15.7 m/hr 34 181 00:01:44 25 105 00:19:56 9:57 min/m
13 56 Kyli HARMON 126 01:10:17 16 55 00:06:11 1:32 sec/100m 16 73 00:02:04 24 91 00:41:47 14.4 m/hr 12 97 00:01:22 11 68 00:18:55 9:27 min/m
14 63 Heidi ANHALT 318 01:11:28 37 141 00:06:32 1:37 sec/100m 20 82 00:02:07 23 88 00:41:41 14.4 m/hr 15 114 00:01:26 22 98 00:19:44 9:51 min/m
15 67 Kate CARLSON 35 01:12:11 32 117 00:06:27 1:36 sec/100m 64 276 00:03:43 26 98 00:42:13 14.2 m/hr 3 39 00:01:06 9 62 00:18:45 9:22 min/m
16 75 Lindsey BAKER 594 01:12:43 44 172 00:06:40 1:39 sec/100m 1 4 00:00:50 27 102 00:42:16 14.2 m/hr 31 171 00:01:42 28 149 00:21:16 10:37 min/m
17 82 Suzanne BAIER 74 01:13:06 18 58 00:06:12 1:32 sec/100m 18 79 00:02:06 35 137 00:44:02 13.6 m/hr 17 120 00:01:27 18 84 00:19:21 9:40 min/m
18 85 Aleita WHITE 200 01:13:14 50 213 00:06:51 1:42 sec/100m 46 194 00:03:02 25 92 00:41:48 14.4 m/hr 53 286 00:02:20 15 79 00:19:14 9:36 min/m
19 86 Kate PRATHER 537 01:13:28 8 40 00:06:06 1:31 sec/100m 17 74 00:02:04 13 53 00:39:17 15.3 m/hr 37 217 00:01:53 50 246 00:24:10 12:04 min/m
20 89 Jennifer ENTREKIN 292 01:13:42 20 66 00:06:14 1:33 sec/100m 12 47 00:01:44 30 109 00:42:32 14.1 m/hr 22 129 00:01:28 30 161 00:21:45 10:52 min/m
21 94 Amanda BAKER 623 01:14:08 1 11 00:05:49 1:27 sec/100m 25 99 00:02:16 17 68 00:40:28 14.8 m/hr 7 53 00:01:10 55 255 00:24:28 12:13 min/m
22 98 Emily WHITTENBURG 502 01:14:59 12 48 00:06:09 1:32 sec/100m 21 84 00:02:08 40 181 00:45:59 13.1 m/hr 29 161 00:01:39 13 73 00:19:07 9:33 min/m
23 112 Melissa NGUYEN 44 01:16:27 11 47 00:06:09 1:32 sec/100m 28 122 00:02:29 34 135 00:43:51 13.7 m/hr 4 40 00:01:06 39 208 00:22:54 11:26 min/m
24 116 Mary PINA 40 01:16:31 22 77 00:06:18 1:34 sec/100m 33 140 00:02:37 36 140 00:44:13 13.6 m/hr 24 133 00:01:29 32 168 00:21:56 10:57 min/m
25 123 Bethany PETERSON 65 01:17:10 43 168 00:06:38 1:39 sec/100m 26 108 00:02:20 32 121 00:43:21 13.8 m/hr 70 365 00:02:58 31 167 00:21:56 10:57 min/m
26 129 Suling HOMSY 229 01:17:33 34 128 00:06:29 1:37 sec/100m 31 136 00:02:35 21 83 00:41:24 14.5 m/hr 39 227 00:01:57 60 282 00:25:09 12:34 min/m
27 133 Daya JUSTUS 187 01:18:09 10 44 00:06:07 1:31 sec/100m 55 218 00:03:12 33 127 00:43:32 13.8 m/hr 96 474 00:05:38 21 96 00:19:42 9:50 min/m
28 134 Mandi MORAN 33 01:18:18 40 149 00:06:34 1:38 sec/100m 57 241 00:03:25 28 106 00:42:27 14.1 m/hr 79 407 00:03:29 36 188 00:22:25 11:12 min/m
29 135 Dana RIEDER 186 01:18:19 28 103 00:06:24 1:35 sec/100m 47 195 00:03:02 39 180 00:45:56 13.1 m/hr 74 386 00:03:14 24 101 00:19:45 9:52 min/m
30 138 Kelly RICHARDSON 185 01:18:25 25 85 00:06:19 1:34 sec/100m 48 196 00:03:02 6 35 00:37:47 15.9 m/hr 101 489 00:07:43 44 231 00:23:36 11:47 min/m
31 143 Angie VALDERRAMA 365 01:18:52 75 336 00:07:20 1:49 sec/100m 102 495 00:12:20 1 1 00:27:45 21.6 m/hr 99 487 00:07:20 49 245 00:24:08 12:03 min/m
32 156 Marjie SMITH 595 01:19:30 35 131 00:06:30 1:37 sec/100m 56 239 00:03:24 48 239 00:48:32 12.4 m/hr 80 411 00:03:31 5 38 00:17:34 8:46 min/m
33 161 Laura ZUNKER 191 01:19:45 93 436 00:08:04 2:00 sec/100m 65 283 00:03:45 18 70 00:40:37 14.8 m/hr 89 446 00:04:08 41 216 00:23:13 11:36 min/m
34 163 Christa DASZKO 297 01:19:49 88 403 00:07:40 1:54 sec/100m 93 444 00:06:09 11 48 00:39:01 15.4 m/hr 95 470 00:05:05 33 169 00:21:56 10:57 min/m
35 167 Jennifer NICKLAUS 41 01:20:06 60 260 00:07:03 1:45 sec/100m 24 96 00:02:14 31 115 00:42:53 14.0 m/hr 57 311 00:02:31 63 295 00:25:27 12:43 min/m
36 169 Jeannette SMITH 686 01:20:09 61 262 00:07:03 1:45 sec/100m 38 164 00:02:52 47 221 00:47:51 12.5 m/hr 69 364 00:02:57 19 87 00:19:27 9:43 min/m
37 172 Woan-Yoke LAU 347 01:20:22 38 144 00:06:33 1:38 sec/100m 11 39 00:01:38 37 167 00:45:31 13.2 m/hr 36 198 00:01:49 59 271 00:24:54 12:26 min/m
38 176 Elizabeth SORENSEN 164 01:20:44 65 288 00:07:09 1:47 sec/100m 92 443 00:06:09 29 107 00:42:28 14.1 m/hr 49 268 00:02:13 38 202 00:22:48 11:23 min/m
39 179 Karla RUIZ 659 01:20:52 68 312 00:07:16 1:48 sec/100m 45 189 00:03:00 56 261 00:49:21 12.2 m/hr 26 141 00:01:32 23 100 00:19:45 9:52 min/m
40 187 Kati CASTELLANOS 97 01:21:38 14 52 00:06:10 1:32 sec/100m 44 187 00:02:59 38 174 00:45:38 13.2 m/hr 48 265 00:02:10 57 265 00:24:44 12:21 min/m
41 188 Lisa BORJON 700 01:21:58 95 443 00:08:12 2:02 sec/100m 3 10 00:01:06 44 200 00:46:54 12.8 m/hr 14 108 00:01:25 52 250 00:24:23 12:11 min/m
42 197 Tamara DESMOND 500 01:22:44 51 215 00:06:52 1:42 sec/100m 83 386 00:04:54 45 206 00:47:18 12.7 m/hr 21 128 00:01:28 35 179 00:22:13 11:06 min/m
43 201 Amanda ZUNIGA 422 01:23:16 53 235 00:06:56 1:43 sec/100m 75 339 00:04:23 55 260 00:49:14 12.2 m/hr 44 237 00:02:00 26 124 00:20:45 10:22 min/m
44 203 Michelle MILLWARD 166 01:23:20 23 78 00:06:18 1:34 sec/100m 50 200 00:03:03 22 86 00:41:34 14.4 m/hr 65 354 00:02:52 86 399 00:29:35 14:47 min/m
45 207 Robin WILLIAMS 447 01:23:29 30 112 00:06:26 1:36 sec/100m 19 80 00:02:06 49 240 00:48:35 12.4 m/hr 1 33 00:01:03 62 288 00:25:19 12:39 min/m
46 208 Joy HERTEL 320 01:23:45 72 327 00:07:19 1:49 sec/100m 36 159 00:02:49 20 80 00:41:20 14.5 m/hr 63 332 00:02:42 87 400 00:29:37 14:48 min/m
47 212 Judy CHANG 626 01:24:04 55 240 00:06:57 1:44 sec/100m 49 199 00:03:03 43 185 00:46:15 13.0 m/hr 78 403 00:03:27 54 252 00:24:24 12:11 min/m
48 224 Sarah CASTRO 557 01:25:34 67 302 00:07:13 1:48 sec/100m 67 290 00:03:50 72 341 00:53:45 11.2 m/hr 25 137 00:01:31 16 81 00:19:17 9:38 min/m
49 226 Erica SERRANO 61 01:25:40 89 419 00:07:52 1:57 sec/100m 2 9 00:01:05 63 303 00:51:38 11.6 m/hr 9 92 00:01:22 46 235 00:23:45 11:52 min/m
50 228 Gina GREEN 452 01:25:54 49 212 00:06:51 1:42 sec/100m 71 332 00:04:15 42 184 00:46:14 13.0 m/hr 71 369 00:03:02 64 299 00:25:34 12:46 min/m
51 229 Melissa SMITH 514 01:25:54 85 389 00:07:37 1:54 sec/100m 89 421 00:05:46 19 73 00:40:42 14.7 m/hr 97 478 00:06:15 65 302 00:25:37 12:48 min/m
52 233 Christanne CARLTON 131 01:26:14 33 118 00:06:27 1:36 sec/100m 30 127 00:02:31 41 182 00:46:01 13.0 m/hr 72 372 00:03:03 78 374 00:28:14 14:06 min/m
53 237 Jennifer MCDONALD 699 01:26:40 45 190 00:06:46 1:41 sec/100m 72 335 00:04:20 62 287 00:50:42 11.8 m/hr 73 382 00:03:13 29 158 00:21:41 10:50 min/m
54 239 Diane HURTADO 432 01:26:44 36 139 00:06:31 1:37 sec/100m 23 89 00:02:09 67 320 00:52:23 11.5 m/hr 51 275 00:02:17 42 220 00:23:26 11:42 min/m
55 244 Cheryll MORALES 290 01:26:57 91 434 00:08:03 2:00 sec/100m 63 267 00:03:39 52 248 00:48:53 12.3 m/hr 30 165 00:01:41 56 262 00:24:42 12:20 min/m
56 250 Michelle HEWARD 224 01:27:21 79 369 00:07:30 1:52 sec/100m 76 340 00:04:24 46 208 00:47:23 12.7 m/hr 91 458 00:04:30 45 233 00:23:37 11:48 min/m
57 254 Jennifer CHONG 277 01:27:33 71 324 00:07:19 1:49 sec/100m 29 126 00:02:30 60 274 00:50:10 12.0 m/hr 11 95 00:01:22 67 318 00:26:15 13:07 min/m
58 274 Jennifer GARCIA 207 01:28:47 74 333 00:07:20 1:49 sec/100m 54 212 00:03:07 73 342 00:53:46 11.2 m/hr 54 297 00:02:25 34 178 00:22:11 11:05 min/m
59 276 Amy BURROUGHS 339 01:28:51 29 109 00:06:25 1:36 sec/100m 59 257 00:03:34 50 241 00:48:39 12.3 m/hr 62 322 00:02:36 74 355 00:27:38 13:48 min/m
60 280 Carrie BHAVSAR 421 01:29:07 27 101 00:06:24 1:35 sec/100m 51 202 00:03:04 66 317 00:52:11 11.5 m/hr 50 273 00:02:16 61 283 00:25:15 12:37 min/m
61 290 Debora RUSTEMEYER 466 01:29:43 64 281 00:07:07 1:46 sec/100m 62 266 00:03:39 54 259 00:49:12 12.2 m/hr 85 426 00:03:46 66 312 00:26:01 13:00 min/m
62 292 Adrienne DONAHUE 462 01:29:52 56 248 00:06:59 1:44 sec/100m 78 348 00:04:31 58 271 00:49:59 12.0 m/hr 38 225 00:01:56 69 329 00:26:28 13:13 min/m
63 299 Blythe LEON 442 01:30:36 84 388 00:07:36 1:53 sec/100m 61 265 00:03:38 71 340 00:53:41 11.2 m/hr 13 106 00:01:25 51 248 00:24:18 12:08 min/m
64 302 Andrea KING 165 01:30:58 7 38 00:06:06 1:31 sec/100m 73 337 00:04:22 59 273 00:50:09 12.0 m/hr 67 361 00:02:56 72 351 00:27:27 13:43 min/m
65 311 Corina WARMERDAM 95 01:32:28 3 17 00:05:55 1:28 sec/100m 9 31 00:01:29 91 441 01:06:41 9.0 m/hr 18 121 00:01:27 3 26 00:16:59 8:29 min/m
66 317 Nancy CANTRELL 150 01:32:52 5 31 00:06:04 1:30 sec/100m 88 412 00:05:28 53 251 00:48:58 12.3 m/hr 76 391 00:03:21 82 385 00:29:03 14:31 min/m
67 320 Rebecca CLAUSI 637 01:33:32 101 489 00:10:20 2:34 sec/100m 42 183 00:02:58 61 278 00:50:23 11.9 m/hr 68 363 00:02:56 70 342 00:26:57 13:28 min/m
68 324 Jenni KIRK 301 01:33:50 4 19 00:05:55 1:28 sec/100m 60 259 00:03:35 70 339 00:53:41 11.2 m/hr 56 302 00:02:25 79 375 00:28:16 14:07 min/m
69 327 Lisa IDNANI 587 01:34:14 80 371 00:07:31 1:52 sec/100m 96 465 00:06:59 74 348 00:54:19 11.0 m/hr 60 317 00:02:33 40 209 00:22:54 11:26 min/m
70 328 Erin PORTMAN 89 01:34:32 78 365 00:07:29 1:52 sec/100m 95 463 00:06:55 75 350 00:54:24 11.0 m/hr     -00:55:22 103 497 01:21:06 40:32 min/m
71 331 Carol ST ANDREW 351 01:34:50 39 146 00:06:33 1:38 sec/100m 66 288 00:03:49 77 355 00:54:50 10.9 m/hr 19 124 00:01:27 77 373 00:28:14 14:06 min/m
72 334 Gladys PROHL 435 01:35:21 58 250 00:07:00 1:44 sec/100m 13 50 00:01:47 85 409 01:01:06 9.8 m/hr 27 143 00:01:32 48 240 00:23:59 11:59 min/m
73 336 Gillian LUKES 255 01:35:42 66 296 00:07:10 1:47 sec/100m 27 117 00:02:23 65 316 00:52:05 11.5 m/hr 41 231 00:01:58 91 438 00:32:09 16:04 min/m
74 341 April HARRIS 544 01:36:29 76 343 00:07:23 1:50 sec/100m 40 173 00:02:56 68 328 00:52:52 11.4 m/hr 16 116 00:01:26 90 434 00:31:55 15:57 min/m
75 345 Melanie RISBERG 582 01:36:59 62 265 00:07:04 1:45 sec/100m 87 405 00:05:11 80 372 00:56:28 10.6 m/hr 86 433 00:03:55 53 251 00:24:23 12:11 min/m
76 355 Jennifer BOCK 113 01:37:49 54 236 00:06:56 1:43 sec/100m 37 160 00:02:50 90 440 01:06:38 9.0 m/hr 52 277 00:02:17 14 74 00:19:09 9:34 min/m
77 357 Janel VALDEZ 178 01:37:54 69 319 00:07:17 1:49 sec/100m 100 483 00:09:00 76 351 00:54:26 11.0 m/hr 90 456 00:04:27 37 201 00:22:46 11:22 min/m
78 361 Harmony VASQUEZ 213 01:38:52 87 395 00:07:38 1:54 sec/100m 70 326 00:04:11 64 314 00:51:59 11.5 m/hr 42 232 00:01:59 93 452 00:33:08 16:33 min/m
79 378 Ellen THELEN 171 01:41:22 98 466 00:08:47 2:11 sec/100m 69 323 00:04:09 51 243 00:48:43 12.3 m/hr 84 425 00:03:45 98 474 00:36:00 17:59 min/m
80 380 Sarah HOWARD 404 01:41:27 92 435 00:08:04 2:00 sec/100m 53 209 00:03:07 57 265 00:49:38 12.1 m/hr 93 463 00:04:40 99 475 00:36:01 18:00 min/m
81 381 Kari WIGGINS 98 01:41:40 26 87 00:06:20 1:34 sec/100m 74 338 00:04:23 79 361 00:55:15 10.9 m/hr 81 412 00:03:33 92 441 00:32:11 16:05 min/m
82 382 Rachel BERGSTROM-CARLSON 353 01:41:40 97 457 00:08:26 2:06 sec/100m 86 394 00:05:01 81 381 00:57:52 10.4 m/hr 35 187 00:01:46 81 380 00:28:38 14:18 min/m
83 384 Merae POTVIN 510 01:41:49 77 347 00:07:24 1:50 sec/100m 43 186 00:02:59 86 411 01:01:28 9.8 m/hr 55 300 00:02:25 73 352 00:27:35 13:47 min/m
84 386 Andrea URSHA 38 01:41:55 82 373 00:07:31 1:52 sec/100m 98 474 00:07:49 69 331 00:52:54 11.3 m/hr 66 359 00:02:54 89 419 00:30:48 15:23 min/m
85 397 Jennie SUTHERLAND 532 01:43:01 90 426 00:07:57 1:59 sec/100m 91 435 00:06:01 78 357 00:54:56 10.9 m/hr 83 423 00:03:44 88 412 00:30:25 15:12 min/m
86 399 Maureen RILEY 78 01:43:16 41 157 00:06:36 1:38 sec/100m 90 429 00:05:56 83 401 01:00:10 10.0 m/hr 58 315 00:02:33 75 370 00:28:03 14:01 min/m
87 401 Stefanie SPENCER 79 01:43:25 100 488 00:10:15 2:33 sec/100m 22 87 00:02:08 84 404 01:00:25 9.9 m/hr 59 316 00:02:33 76 371 00:28:06 14:02 min/m
88 402 Camila MORAIS 668 01:43:45 13 50 00:06:09 1:32 sec/100m 84 387 00:04:56 87 426 01:04:45 9.3 m/hr 88 441 00:04:00 47 239 00:23:57 11:58 min/m
89 416 Shanna HEIN 608 01:46:30 47 206 00:06:49 1:42 sec/100m 97 469 00:07:31 89 432 01:05:22 9.2 m/hr 40 229 00:01:58 58 269 00:24:53 12:26 min/m
90 421 Emma NOLAN 323 01:47:02 73 328 00:07:19 1:49 sec/100m 77 344 00:04:29 88 431 01:05:17 9.2 m/hr 82 416 00:03:40 68 321 00:26:19 13:09 min/m
91 425 Amy CLINE 550 01:48:17 96 451 00:08:20 2:04 sec/100m 80 361 00:04:40 96 462 01:09:43 8.6 m/hr 46 249 00:02:03 43 229 00:23:34 11:46 min/m
92 441 Katie MCDANALD 380 01:50:24 63 276 00:07:07 1:46 sec/100m 81 372 00:04:47 93 452 01:07:53 8.8 m/hr 77 394 00:03:22 71 347 00:27:17 13:38 min/m
93 446 Jae FRAZIER 577 01:52:40 86 392 00:07:37 1:54 sec/100m 99 481 00:08:46 82 392 00:59:23 10.1 m/hr 100 488 00:07:38 85 394 00:29:19 14:39 min/m
94 459 Mariah RAMON 613 01:57:48 81 372 00:07:31 1:52 sec/100m 52 204 00:03:05 94 456 01:09:22 8.6 m/hr 61 319 00:02:35 94 467 00:35:17 17:38 min/m
95 474 Chandra ACHBERGER 520 02:01:24 57 249 00:07:00 1:44 sec/100m 85 393 00:05:00 98 474 01:12:40 8.3 m/hr 20 127 00:01:28 95 468 00:35:18 17:38 min/m
96 480 Aelia AKHTAR 633 02:03:59 103 494 00:12:55 3:13 sec/100m 58 245 00:03:29 100 485 01:17:45 7.7 m/hr 10 93 00:01:22 80 377 00:28:30 14:14 min/m
97 484 Alicia MCGUFFIN 174 02:07:15 59 259 00:07:03 1:45 sec/100m 94 462 00:06:51 99 477 01:13:48 8.1 m/hr 87 436 00:03:58 97 472 00:35:37 17:48 min/m
98 486 Lisa HOLMES 176 02:07:31 70 322 00:07:18 1:49 sec/100m 79 360 00:04:39 97 471 01:11:17 8.4 m/hr 102 493 00:08:43 96 471 00:35:36 17:47 min/m
99 491 Peggy SMITH 509 02:18:10 102 493 00:11:47 2:56 sec/100m 101 491 00:10:24 92 449 01:07:40 8.9 m/hr 98 484 00:06:38 100 491 00:41:42 20:50 min/m
100 492 Soubanh Keili MANIVANH 543 02:18:13 94 441 00:08:09 2:02 sec/100m 103 496 00:14:09 95 457 01:09:24 8.6 m/hr 94 465 00:04:50 101 492 00:41:43 20:51 min/m
101 495 Diem HOANG 419 02:19:07 48 208 00:06:50 1:42 sec/100m 68 321 00:04:07 102 494 01:37:52 6.1 m/hr 6 50 00:01:09 84 391 00:29:10 14:34 min/m
102 496 Ngoc GILLESPIE 605 02:19:10 52 225 00:06:55 1:43 sec/100m 5 14 00:01:12 103 495 01:40:47 6.0 m/hr 5 49 00:01:09 83 389 00:29:09 14:34 min/m
103 497 Gaby SIGGINS 631 02:32:26 99 475 00:08:58 2:14 sec/100m 82 374 00:04:48 101 492 01:31:40 6.5 m/hr 75 390 00:03:21 102 494 00:43:42 21:50 min/m
Ages 45 - 49
1 17 Candy DEVANY 345 01:03:26 41 243 00:06:58 1:44 sec/100m 8 58 00:01:50 3 14 00:36:00 16.7 m/hr 34 206 00:01:50 2 22 00:16:51 8:25 min/m
2 18 Kami COOTS 303 01:03:56 23 133 00:06:30 1:37 sec/100m 9 61 00:01:53 4 18 00:36:27 16.5 m/hr 13 107 00:01:25 5 43 00:17:42 8:50 min/m
3 26 Christine MONACO 472 01:05:09 22 132 00:06:30 1:37 sec/100m 11 70 00:02:02 5 31 00:37:29 16.0 m/hr 42 252 00:02:04 3 27 00:17:05 8:32 min/m
4 33 Cheryl MONTGOMERY 54 01:06:55 17 113 00:06:27 1:36 sec/100m 5 46 00:01:44 11 78 00:41:10 14.6 m/hr 35 213 00:01:52 1 9 00:15:45 7:52 min/m
5 39 Hester RODRIGUEZ 130 01:08:01 34 207 00:06:50 1:42 sec/100m 18 131 00:02:33 7 49 00:39:05 15.4 m/hr 22 147 00:01:33 6 49 00:18:02 9:00 min/m
6 52 Lisa SHACKELFORD 4 01:09:27 88 497 00:50:33 12:38 sec/100m     -00:00:48     00:00:00 m/hr 1 11 00:00:48 8 65 00:18:54 9:26 min/m
7 55 Joella HILL 579 01:10:16 10 92 00:06:20 1:34 sec/100m 23 155 00:02:45 2 12 00:35:29 16.9 m/hr 64 356 00:02:53 27 204 00:22:51 11:25 min/m
8 74 Jill TUTTLE 473 01:12:41 29 176 00:06:42 1:40 sec/100m 27 174 00:02:56 9 72 00:40:41 14.8 m/hr 19 142 00:01:32 13 130 00:20:52 10:25 min/m
9 76 Stacie OTTEN 84 01:12:45 45 283 00:07:08 1:46 sec/100m 2 13 00:01:09 16 101 00:42:16 14.2 m/hr 6 48 00:01:08 14 142 00:21:06 10:32 min/m
10 81 Jessica DAVIS 448 01:12:54 26 151 00:06:35 1:38 sec/100m 24 156 00:02:47 15 99 00:42:13 14.2 m/hr 47 288 00:02:21 10 71 00:19:01 9:30 min/m
11 93 Jessica SAAVEDRA 211 01:14:01 24 136 00:06:31 1:37 sec/100m 40 236 00:03:21 6 40 00:38:03 15.8 m/hr 55 328 00:02:41 32 222 00:23:27 11:43 min/m
12 109 Jill SPREITZER 461 01:16:02 32 194 00:06:47 1:41 sec/100m 48 291 00:03:50 8 51 00:39:11 15.3 m/hr 26 160 00:01:38 41 261 00:24:38 12:18 min/m
13 111 Jennifer WEBER 517 01:16:15 3 18 00:05:55 1:28 sec/100m 19 135 00:02:35 20 138 00:44:05 13.6 m/hr 33 199 00:01:49 15 166 00:21:53 10:56 min/m
14 120 Kristin SKOLNIK 244 01:16:57 8 68 00:06:14 1:33 sec/100m 44 260 00:03:35 41 225 00:47:59 12.5 m/hr 37 235 00:01:59 4 32 00:17:12 8:35 min/m
15 124 Donna DURHAM 364 01:17:11 39 237 00:06:56 1:43 sec/100m 3 40 00:01:38 18 130 00:43:39 13.7 m/hr 11 94 00:01:22 35 234 00:23:37 11:48 min/m
16 130 Troy MCCULLER 379 01:17:54 25 137 00:06:31 1:37 sec/100m 10 62 00:01:54 17 123 00:43:25 13.8 m/hr 23 151 00:01:35 40 258 00:24:31 12:15 min/m
17 131 Leanna PERSINGER 363 01:17:56 30 177 00:06:42 1:40 sec/100m 52 328 00:04:12 10 75 00:40:58 14.6 m/hr 78 409 00:03:31 23 193 00:22:35 11:17 min/m
18 132 Kristin ELLIOTT 243 01:17:57 4 27 00:06:02 1:30 sec/100m 47 280 00:03:44 40 224 00:47:54 12.5 m/hr 41 243 00:02:02 7 51 00:18:17 9:08 min/m
19 136 Sheri LITCHFORD 237 01:18:23 33 201 00:06:48 1:41 sec/100m 4 44 00:01:42 14 95 00:42:03 14.3 m/hr 36 230 00:01:58 49 310 00:25:55 12:57 min/m
20 137 Michelle MOHR 519 01:18:23 13 102 00:06:24 1:35 sec/100m 31 215 00:03:09 19 134 00:43:45 13.7 m/hr 40 241 00:02:01 30 214 00:23:07 11:33 min/m
21 139 Ilaina WINGLER 281 01:18:26 31 186 00:06:45 1:41 sec/100m 39 233 00:03:20 22 149 00:44:37 13.5 m/hr 69 379 00:03:10 12 118 00:20:35 10:17 min/m
22 146 Nicole MARTIS 127 01:19:02 14 105 00:06:24 1:35 sec/100m 37 230 00:03:18 45 247 00:48:49 12.3 m/hr 25 158 00:01:37 9 67 00:18:55 9:27 min/m
23 148 Kirsten SCHUTT 194 01:19:16 35 220 00:06:53 1:43 sec/100m 29 190 00:03:00 21 147 00:44:24 13.5 m/hr 60 344 00:02:47 18 182 00:22:15 11:07 min/m
24 155 Erin MILLER 533 01:19:29 19 125 00:06:29 1:37 sec/100m 6 49 00:01:47 32 192 00:46:33 12.9 m/hr 51 301 00:02:25 19 184 00:22:18 11:08 min/m
25 158 Kelly POGUE 689 01:19:33 1 3 00:05:35 1:23 sec/100m 17 130 00:02:33 34 197 00:46:44 12.8 m/hr 50 296 00:02:25 20 185 00:22:19 11:09 min/m
26 165 Kimberly CARTER 488 01:19:51 55 326 00:07:19 1:49 sec/100m 28 175 00:02:56 30 187 00:46:18 13.0 m/hr 2 23 00:00:56 21 186 00:22:22 11:10 min/m
27 166 Jessica WYATT 698 01:20:02 16 111 00:06:26 1:36 sec/100m 42 249 00:03:31 33 193 00:46:33 12.9 m/hr 24 155 00:01:37 16 170 00:21:57 10:58 min/m
28 174 Shannon SCHULZ 465 01:20:32 57 338 00:07:20 1:49 sec/100m 87 494 00:11:09 1 7 00:33:34 17.9 m/hr 59 343 00:02:46 48 305 00:25:45 12:52 min/m
29 180 Viola ISSLEIB 654 01:20:58 53 310 00:07:15 1:48 sec/100m 20 137 00:02:37 26 159 00:45:22 13.2 m/hr 7 72 00:01:16 39 256 00:24:29 12:14 min/m
30 181 Monica THORPE 30 01:20:59 15 107 00:06:25 1:36 sec/100m 12 75 00:02:04 42 233 00:48:15 12.4 m/hr 9 87 00:01:21 29 211 00:22:57 11:28 min/m
31 192 Brenda LOPEZ 551 01:22:10 18 123 00:06:29 1:37 sec/100m 63 369 00:04:45 28 176 00:45:43 13.1 m/hr 48 289 00:02:21 28 210 00:22:54 11:26 min/m
32 194 Christi SPRINGFIELD 683 01:22:29 64 357 00:07:28 1:51 sec/100m 35 224 00:03:15 31 189 00:46:21 12.9 m/hr 14 110 00:01:25 36 243 00:24:02 12:00 min/m
33 195 Kim DILL 603 01:22:36 2 7 00:05:46 1:26 sec/100m 13 102 00:02:17 27 175 00:45:43 13.1 m/hr 43 253 00:02:04 55 340 00:26:48 13:23 min/m
34 202 Katherine CHANG 644 01:23:17 43 272 00:07:05 1:46 sec/100m 41 240 00:03:25 25 155 00:45:12 13.3 m/hr 73 392 00:03:21 37 247 00:24:16 12:07 min/m
35 209 Tonya STILWELL 467 01:23:49 9 76 00:06:17 1:34 sec/100m 25 167 00:02:53 24 154 00:45:05 13.3 m/hr 74 393 00:03:21 51 317 00:26:15 13:07 min/m
36 211 Kelly RUXER 410 01:24:03 27 152 00:06:35 1:38 sec/100m 49 304 00:03:56 43 234 00:48:19 12.4 m/hr 52 304 00:02:26 26 203 00:22:49 11:24 min/m
37 217 Susan SCHEUER 93 01:24:30 12 95 00:06:22 1:35 sec/100m 15 121 00:02:26 13 90 00:41:44 14.4 m/hr 46 285 00:02:20 80 430 00:31:39 15:49 min/m
38 219 Tina FUENTES 221 01:25:03 28 164 00:06:37 1:39 sec/100m 22 153 00:02:44 57 315 00:52:01 11.5 m/hr 8 78 00:01:19 22 187 00:22:24 11:11 min/m
39 221 Lisa WILLMON 139 01:25:10 20 129 00:06:30 1:37 sec/100m 59 355 00:04:36 29 179 00:45:46 13.1 m/hr 58 342 00:02:46 46 301 00:25:34 12:46 min/m
40 225 Sandi COLLIER 151 01:25:35 81 472 00:08:57 2:14 sec/100m 26 168 00:02:54 36 204 00:47:10 12.7 m/hr 31 186 00:01:45 44 268 00:24:52 12:25 min/m
41 231 Teresa AIKEN 123 01:25:59 7 61 00:06:13 1:33 sec/100m 43 254 00:03:33 53 300 00:51:23 11.7 m/hr 27 163 00:01:40 31 218 00:23:13 11:36 min/m
42 234 Tara WALKER-LEON 330 01:26:23 69 393 00:07:37 1:54 sec/100m 33 221 00:03:13 44 236 00:48:25 12.4 m/hr 21 146 00:01:33 47 303 00:25:37 12:48 min/m
43 255 Lori WEATHERLY 358 01:27:36 62 350 00:07:26 1:51 sec/100m 34 223 00:03:14 47 256 00:49:07 12.2 m/hr 32 196 00:01:48 50 313 00:26:04 13:01 min/m
44 258 Jennifer LONG 39 01:27:44 6 59 00:06:12 1:32 sec/100m 76 422 00:05:46 35 201 00:47:00 12.8 m/hr 77 406 00:03:29 45 287 00:25:19 12:39 min/m
45 264 Stephanie EDMONDSON 496 01:28:08 42 261 00:07:03 1:45 sec/100m 45 264 00:03:37 23 151 00:44:45 13.4 m/hr 79 413 00:03:34 69 393 00:29:11 14:35 min/m
46 266 Angela MEYER 103 01:28:16 82 474 00:08:57 2:14 sec/100m 7 56 00:01:49 48 262 00:49:25 12.1 m/hr 5 38 00:01:06 56 344 00:27:01 13:30 min/m
47 272 Julia MENEGAY 474 01:28:43 60 342 00:07:22 1:50 sec/100m 74 404 00:05:09 12 89 00:41:41 14.4 m/hr 86 476 00:06:04 63 376 00:28:29 14:14 min/m
48 277 Jennifer SEHY 440 01:28:56 48 298 00:07:11 1:47 sec/100m 77 425 00:05:54 38 210 00:47:26 12.7 m/hr 80 422 00:03:44 42 263 00:24:43 12:21 min/m
49 278 Kim ROSS 451 01:28:59 21 130 00:06:30 1:37 sec/100m 32 220 00:03:12 59 319 00:52:13 11.5 m/hr 45 282 00:02:18 43 267 00:24:47 12:23 min/m
50 284 Marissa BORREGO 607 01:29:25 54 316 00:07:16 1:48 sec/100m 73 402 00:05:07 52 289 00:50:45 11.8 m/hr 61 349 00:02:49 34 225 00:23:30 11:44 min/m
51 285 Stephanie DAVIS 412 01:29:26 36 224 00:06:55 1:43 sec/100m 62 367 00:04:43 60 325 00:52:35 11.4 m/hr 53 314 00:02:32 24 197 00:22:43 11:21 min/m
52 286 Christine HERVAS 606 01:29:29 56 332 00:07:19 1:49 sec/100m 72 401 00:05:06 51 288 00:50:45 11.8 m/hr 63 352 00:02:51 33 224 00:23:30 11:44 min/m
53 296 Kathy BURGESS 369 01:30:20 49 301 00:07:13 1:48 sec/100m 58 351 00:04:33 39 211 00:47:27 12.6 m/hr 88 494 00:08:55 17 181 00:22:14 11:06 min/m
54 306 Lori BURNETT 14 01:31:14 5 29 00:06:03 1:30 sec/100m 36 228 00:03:18 69 377 00:57:30 10.4 m/hr 28 166 00:01:41 25 198 00:22:43 11:21 min/m
55 319 Janey BAMONTE 634 01:33:30 79 470 00:08:54 2:13 sec/100m 1 1 00:00:39 55 312 00:51:55 11.6 m/hr 12 102 00:01:24 76 417 00:30:39 15:19 min/m
56 321 Jennifer SOBOCINSKI 209 01:33:33 47 295 00:07:10 1:47 sec/100m 61 366 00:04:43 54 310 00:51:54 11.6 m/hr 56 336 00:02:43 57 345 00:27:05 13:32 min/m
57 325 Nana MAY 256 01:34:01 46 290 00:07:09 1:47 sec/100m 78 427 00:05:56 37 209 00:47:26 12.7 m/hr 68 377 00:03:07 72 413 00:30:26 15:12 min/m
58 326 Robyn OLIVER 274 01:34:13 65 366 00:07:30 1:52 sec/100m 51 319 00:04:06 66 337 00:53:35 11.2 m/hr 10 88 00:01:21 58 357 00:27:44 13:51 min/m
59 329 Stephanie MOLNAR 296 01:34:45 52 309 00:07:14 1:48 sec/100m 38 232 00:03:19 49 279 00:50:24 11.9 m/hr 75 395 00:03:22 73 414 00:30:28 15:13 min/m
60 332 Lucinda ALEJO 73 01:34:54 58 339 00:07:20 1:49 sec/100m 14 119 00:02:24 76 420 01:03:50 9.4 m/hr 4 35 00:01:05 11 110 00:20:16 10:07 min/m
61 338 Julie ELLIOTT 612 01:36:01 73 416 00:07:48 1:56 sec/100m 57 343 00:04:26 61 327 00:52:48 11.4 m/hr 71 384 00:03:13 59 358 00:27:49 13:54 min/m
62 346 Rhonda BARKER 220 01:37:06 66 367 00:07:30 1:52 sec/100m 64 377 00:04:49 65 336 00:53:34 11.2 m/hr 76 400 00:03:23 60 361 00:27:51 13:55 min/m
63 349 Jennifer STAFF 610 01:37:21 40 242 00:06:58 1:44 sec/100m 30 205 00:03:05 63 333 00:52:57 11.3 m/hr 15 123 00:01:27 82 449 00:32:57 16:28 min/m
64 354 Jennifer CORNELL 512 01:37:45 84 477 00:08:58 2:14 sec/100m 67 389 00:04:56 58 318 00:52:12 11.5 m/hr 3 27 00:01:01 75 416 00:30:39 15:19 min/m
65 359 Stacy ROSE 642 01:38:11 74 429 00:08:01 2:00 sec/100m 79 430 00:05:56 64 335 00:53:18 11.3 m/hr 84 453 00:04:22 52 333 00:26:36 13:17 min/m
66 363 Maria HERNANDEZ 332 01:38:59 70 398 00:07:39 1:54 sec/100m 53 331 00:04:14 56 313 00:51:58 11.5 m/hr 38 239 00:02:01 85 453 00:33:09 16:34 min/m
67 366 Heather RUGGERO 534 01:39:22 44 274 00:07:05 1:46 sec/100m 16 124 00:02:29 71 396 00:59:50 10.0 m/hr 39 240 00:02:01 62 369 00:27:58 13:58 min/m
68 370 Renee DIETRICH 124 01:39:36 87 495 00:13:15 3:18 sec/100m 84 467 00:07:09 50 284 00:50:32 11.9 m/hr 85 454 00:04:23 38 249 00:24:18 12:08 min/m
69 373 Abbie WARD 406 01:40:30 75 430 00:08:02 2:00 sec/100m 50 311 00:04:01 68 366 00:55:30 10.8 m/hr 49 291 00:02:22 74 415 00:30:37 15:18 min/m
70 383 Deanna PERKINS 355 01:41:41 77 459 00:08:30 2:07 sec/100m 54 333 00:04:17 46 252 00:48:58 12.3 m/hr 72 385 00:03:13 87 479 00:36:44 18:21 min/m
71 385 Shannon RISER 36 01:41:52 71 402 00:07:39 1:54 sec/100m 85 472 00:07:40 62 330 00:52:53 11.3 m/hr 57 340 00:02:46 77 421 00:30:55 15:27 min/m
72 388 Wendy ATKINS-SAYRE 636 01:42:07 61 349 00:07:25 1:51 sec/100m 55 341 00:04:24 72 398 01:00:00 10.0 m/hr 16 126 00:01:28 66 382 00:28:52 14:25 min/m
73 389 Shellie WITHROW 635 01:42:10 63 352 00:07:27 1:51 sec/100m 56 342 00:04:24 73 399 01:00:01 10.0 m/hr 17 132 00:01:29 65 381 00:28:51 14:25 min/m
74 394 Belinda RODRIGUEZ 482 01:42:56 50 305 00:07:14 1:48 sec/100m 21 146 00:02:41 74 402 01:00:22 9.9 m/hr 65 370 00:03:02 70 401 00:29:39 14:49 min/m
75 406 Nanette CORWIN 167 01:44:19 72 412 00:07:46 1:56 sec/100m 83 456 00:06:38 67 353 00:54:34 11.0 m/hr 62 351 00:02:51 81 445 00:32:31 16:15 min/m
76 419 Karyn JENSEN 310 01:46:54 68 378 00:07:33 1:53 sec/100m 81 441 00:06:05 70 385 00:58:56 10.2 m/hr 87 482 00:06:27 61 365 00:27:55 13:57 min/m
77 442 Angel GARCIA 263 01:51:31 11 94 00:06:22 1:35 sec/100m 46 272 00:03:41 79 463 01:09:48 8.6 m/hr 18 139 00:01:31 71 406 00:30:11 15:05 min/m
78 448 Clemencia CARRILLO 681 01:52:48 83 476 00:08:58 2:14 sec/100m 75 408 00:05:21 78 460 01:09:37 8.6 m/hr 44 266 00:02:10 54 337 00:26:45 13:22 min/m
79 449 Bonnie KRUEGER 527 01:52:59 85 479 00:09:01 2:15 sec/100m 65 378 00:04:50 75 417 01:03:35 9.4 m/hr 83 445 00:04:08 79 429 00:31:27 15:43 min/m
80 450 Heather BARTHELME 234 01:53:18 37 227 00:06:55 1:43 sec/100m 80 440 00:06:05 77 450 01:07:44 8.9 m/hr 82 438 00:03:59 64 379 00:28:37 14:18 min/m
81 460 Jacqueline MARTINEZ 604 01:57:53 76 446 00:08:14 2:03 sec/100m 60 357 00:04:36 85 480 01:15:16 8.0 m/hr 70 380 00:03:10 53 334 00:26:39 13:19 min/m
82 464 Deborah KOEHLER 245 01:59:16 78 468 00:08:50 2:12 sec/100m 68 390 00:04:57 81 468 01:10:47 8.5 m/hr 30 185 00:01:45 84 451 00:33:00 16:29 min/m
83 465 Lori ASSAD 239 01:59:19 80 471 00:08:55 2:13 sec/100m 66 388 00:04:56 82 469 01:10:49 8.5 m/hr 29 170 00:01:42 83 450 00:32:59 16:29 min/m
84 467 Allison PECK 565 01:59:43 38 234 00:06:56 1:43 sec/100m 70 398 00:05:02 84 479 01:15:16 8.0 m/hr 20 145 00:01:33 78 422 00:30:58 15:28 min/m
85 475 Allison ROPER 463 02:01:27 51 308 00:07:14 1:48 sec/100m 69 395 00:05:01 87 484 01:17:00 7.8 m/hr 67 376 00:03:06 67 386 00:29:07 14:33 min/m
86 476 Constance GEERHART 464 02:01:34 59 340 00:07:20 1:49 sec/100m 71 400 00:05:03 86 483 01:16:59 7.8 m/hr 66 375 00:03:05 68 387 00:29:08 14:33 min/m
87 485 Tina MARROY 173 02:07:19 67 368 00:07:30 1:52 sec/100m 82 452 00:06:28 83 478 01:15:11 8.0 m/hr 54 325 00:02:39 86 470 00:35:33 17:46 min/m
88 490 Renee LARSON 241 02:17:51 86 490 00:11:28 2:51 sec/100m 86 492 00:10:25 80 464 01:10:18 8.5 m/hr 81 437 00:03:59 88 493 00:41:43 20:51 min/m
Ages 50 - 54
1 6 Josie KUDLICKI 266 01:00:04 2 56 00:06:11 1:32 sec/100m 3 24 00:01:23 1 4 00:32:59 18.2 m/hr 6 149 00:01:35 1 48 00:17:58 8:58 min/m
2 40 Debbie COPLEY 709 01:08:06 8 167 00:06:38 1:39 sec/100m 1 5 00:00:53 2 57 00:39:45 15.1 m/hr 2 19 00:00:53 3 107 00:20:00 9:59 min/m
3 64 Monica BONELLI 9 01:11:37 4 93 00:06:21 1:35 sec/100m 6 59 00:01:50 4 69 00:40:31 14.8 m/hr 8 179 00:01:44 7 146 00:21:13 10:36 min/m
4 68 Cynthia AMAYA 371 01:12:24 7 142 00:06:32 1:37 sec/100m 16 275 00:03:42 3 61 00:40:10 14.9 m/hr 5 109 00:01:25 4 120 00:20:37 10:18 min/m
5 71 Beth Ann WOOD 118 01:12:34 1 8 00:05:47 1:26 sec/100m 5 48 00:01:46 6 81 00:41:22 14.5 m/hr 14 221 00:01:55 10 162 00:21:46 10:52 min/m
6 97 Dorota WAKED 128 01:14:50 10 279 00:07:07 1:46 sec/100m 7 109 00:02:21 13 188 00:46:20 13.0 m/hr 1 4 00:00:43 2 52 00:18:20 9:09 min/m
7 99 Dawn SANCHEZ 288 01:15:04 6 138 00:06:31 1:37 sec/100m 4 42 00:01:40 5 74 00:40:56 14.7 m/hr 4 105 00:01:25 12 259 00:24:35 12:17 min/m
8 110 Diana TRIANA 673 01:16:10 5 96 00:06:23 1:35 sec/100m 2 15 00:01:13 7 82 00:41:24 14.5 m/hr 7 174 00:01:43 16 296 00:25:29 12:44 min/m
9 121 Tamara CRAWFORD 457 01:16:58 16 359 00:07:28 1:51 sec/100m 10 150 00:02:43 9 126 00:43:32 13.8 m/hr 13 211 00:01:51 9 153 00:21:26 10:42 min/m
10 149 Cindy PALOMINO 257 01:19:19 11 282 00:07:07 1:46 sec/100m 18 318 00:04:05 11 162 00:45:26 13.2 m/hr 9 182 00:01:44 5 131 00:20:58 10:28 min/m
11 151 Patti ABKOWITZ 443 01:19:26 20 383 00:07:34 1:53 sec/100m 15 261 00:03:36 8 85 00:41:25 14.5 m/hr 20 309 00:02:28 11 254 00:24:26 12:12 min/m
12 220 Nora FLORES 588 01:25:06 21 384 00:07:34 1:53 sec/100m 14 253 00:03:32 19 293 00:50:58 11.8 m/hr 10 184 00:01:45 8 150 00:21:20 10:39 min/m
13 257 Shauna FENTON 311 01:27:40 3 73 00:06:17 1:34 sec/100m 22 417 00:05:43 10 161 00:45:25 13.2 m/hr 27 428 00:03:48 21 330 00:26:29 13:14 min/m
14 263 Dianne MENDIOLA 511 01:28:08 9 252 00:07:01 1:45 sec/100m 11 206 00:03:05 15 272 00:50:06 12.0 m/hr 21 318 00:02:33 15 291 00:25:25 12:42 min/m
15 267 Cheryl WHEELESS 28 01:28:23 23 409 00:07:43 1:55 sec/100m 21 415 00:05:39 20 302 00:51:32 11.6 m/hr 19 306 00:02:26 6 136 00:21:05 10:32 min/m
16 289 Margaret HICKOX 438 01:29:42 15 334 00:07:20 1:49 sec/100m 19 370 00:04:46 18 286 00:50:35 11.9 m/hr 16 233 00:01:59 13 276 00:25:04 12:31 min/m
17 293 Arleen LONGORIA 450 01:30:06 22 386 00:07:35 1:53 sec/100m 25 446 00:06:12 12 186 00:46:18 13.0 m/hr 28 435 00:03:57 19 314 00:26:06 13:02 min/m
18 294 Betsy JACUNSKI 663 01:30:15 19 377 00:07:32 1:52 sec/100m 12 238 00:03:24 14 220 00:47:50 12.5 m/hr 25 388 00:03:18 23 372 00:28:13 14:06 min/m
19 312 Gracie MARTIN 704 01:32:31 24 421 00:07:52 1:57 sec/100m 23 418 00:05:45 16 283 00:50:32 11.9 m/hr 22 323 00:02:37 18 307 00:25:47 12:53 min/m
20 313 Marina HAYS 705 01:32:40 33 486 00:10:09 2:32 sec/100m 8 116 00:02:22 22 307 00:51:46 11.6 m/hr 23 324 00:02:38 17 306 00:25:46 12:52 min/m
21 344 Katie RYAN 535 01:36:52 18 364 00:07:29 1:52 sec/100m 17 302 00:03:55 26 380 00:57:51 10.4 m/hr 3 98 00:01:22 20 320 00:26:17 13:08 min/m
22 350 Elzbieta MCMURTRIE-JAYARAM 670 01:37:24 30 460 00:08:31 2:07 sec/100m 28 464 00:06:57 17 285 00:50:33 11.9 m/hr 32 477 00:06:09 14 285 00:25:18 12:38 min/m
23 391 Brenda GAMBLE 407 01:42:17 13 303 00:07:13 1:48 sec/100m 27 450 00:06:19 24 343 00:54:01 11.1 m/hr 17 234 00:01:59 29 448 00:32:46 16:22 min/m
24 392 Beverly PAGE 152 01:42:19 14 315 00:07:16 1:48 sec/100m 26 449 00:06:19 21 305 00:51:41 11.6 m/hr 30 452 00:04:19 28 447 00:32:45 16:22 min/m
25 393 Wendy GUMBERT 37 01:42:30 28 455 00:08:24 2:05 sec/100m 30 470 00:07:31 23 332 00:52:55 11.3 m/hr 24 350 00:02:51 24 420 00:30:51 15:25 min/m
26 418 Loree LACHANCE 396 01:46:51 17 361 00:07:29 1:52 sec/100m 24 439 00:06:05 27 387 00:58:57 10.2 m/hr 33 481 00:06:26 22 366 00:27:56 13:57 min/m
27 431 Lennis CASANOVA 315 01:48:42 25 437 00:08:06 2:01 sec/100m 33 487 00:09:32 25 349 00:54:23 11.0 m/hr 29 447 00:04:09 27 446 00:32:35 16:17 min/m
28 438 Deborah REEVES 646 01:49:51 26 447 00:08:15 2:03 sec/100m 20 410 00:05:25 28 393 00:59:45 10.0 m/hr 11 202 00:01:49 31 461 00:34:39 17:19 min/m
29 443 Jackie JASKULA 542 01:52:08 32 482 00:09:22 2:20 sec/100m 13 250 00:03:31 31 416 01:03:03 9.5 m/hr 18 299 00:02:25 30 459 00:33:49 16:54 min/m
30 451 Nathalie HILL-KAPTURCZAK 401 01:53:38 29 456 00:08:25 2:06 sec/100m 29 466 00:07:00 32 424 01:04:15 9.3 m/hr 12 207 00:01:50 26 440 00:32:10 16:04 min/m
31 455 Deona SOKOL 359 01:54:45 12 293 00:07:09 1:47 sec/100m 9 143 00:02:40 33 470 01:10:56 8.5 m/hr 15 226 00:01:57 25 437 00:32:05 16:02 min/m
32 461 Nelly BRIERTY 222 01:58:29 31 461 00:08:32 2:07 sec/100m 32 485 00:09:06 30 410 01:01:06 9.8 m/hr 31 455 00:04:23 32 469 00:35:24 17:41 min/m
33 470 Trasena USSERY 647 02:01:08 27 452 00:08:22 2:05 sec/100m 31 476 00:08:14 29 400 01:00:09 10.0 m/hr 26 408 00:03:31 33 490 00:40:54 20:26 min/m
Ages 55 - 59
1 24 Pam WALLACE 291 01:05:03 4 120 00:06:28 1:36 sec/100m 8 123 00:02:29 2 22 00:36:56 16.3 m/hr 13 209 00:01:51 1 35 00:17:21 8:40 min/m
2 43 Denise BROWN 198 01:08:18 8 264 00:07:04 1:45 sec/100m 3 78 00:02:06 3 54 00:39:26 15.2 m/hr 1 34 00:01:05 3 60 00:18:40 9:19 min/m
3 45 Karen JEFFRIES 155 01:08:44 1 43 00:06:07 1:31 sec/100m 1 38 00:01:37 6 64 00:40:22 14.9 m/hr 3 75 00:01:18 4 85 00:19:22 9:40 min/m
4 50 Paula BOWDEN 129 01:09:14 2 79 00:06:18 1:34 sec/100m 10 147 00:02:42 1 13 00:35:55 16.7 m/hr 12 208 00:01:50 8 190 00:22:31 11:15 min/m
5 65 Monica LEWIS 481 01:11:54 9 321 00:07:18 1:49 sec/100m 7 120 00:02:25 8 94 00:42:02 14.3 m/hr 7 175 00:01:43 2 55 00:18:28 9:13 min/m
6 78 Elaine BLAIN 205 01:12:52 6 191 00:06:46 1:41 sec/100m 5 107 00:02:19 5 59 00:39:58 15.0 m/hr 11 195 00:01:47 7 172 00:22:04 11:01 min/m
7 88 Donna WILDER 414 01:13:38 10 329 00:07:19 1:49 sec/100m 12 184 00:02:58 7 65 00:40:23 14.9 m/hr 15 272 00:02:16 5 123 00:20:44 10:21 min/m
8 115 Beth Ann MATLOCK 29 01:16:31 17 414 00:07:47 1:56 sec/100m 2 63 00:01:56 4 55 00:39:35 15.2 m/hr 8 189 00:01:46 12 297 00:25:29 12:44 min/m
9 182 Linda D ANDERS 372 01:21:01 3 100 00:06:23 1:35 sec/100m 11 148 00:02:42 15 268 00:49:50 12.0 m/hr 4 81 00:01:19 6 126 00:20:47 10:23 min/m
10 189 Melinda ROGERS 584 01:22:01 5 158 00:06:36 1:38 sec/100m 14 299 00:03:54 11 156 00:45:12 13.3 m/hr 5 159 00:01:37 10 264 00:24:43 12:21 min/m
11 206 Lisa MCCOMB 629 01:23:29 11 354 00:07:28 1:51 sec/100m 19 384 00:04:53 10 133 00:43:44 13.7 m/hr 19 460 00:04:34 9 206 00:22:53 11:26 min/m
12 214 Denise MCCUTCHEN GRACE 279 01:24:18 7 210 00:06:50 1:42 sec/100m 6 118 00:02:24 9 110 00:42:39 14.1 m/hr 17 355 00:02:53 15 398 00:29:34 14:46 min/m
13 227 Patty HAMM 91 01:25:41 12 382 00:07:33 1:53 sec/100m 4 85 00:02:08 12 216 00:47:38 12.6 m/hr 10 192 00:01:47 13 332 00:26:36 13:17 min/m
14 318 Jill GUERIN 499 01:33:11 18 422 00:07:52 1:57 sec/100m 17 334 00:04:18 14 245 00:48:48 12.3 m/hr 2 61 00:01:12 19 425 00:31:03 15:31 min/m
15 364 Elaine BLACK 391 01:39:09 16 404 00:07:40 1:54 sec/100m 13 284 00:03:47 17 356 00:54:54 10.9 m/hr 16 298 00:02:25 17 411 00:30:24 15:11 min/m
16 371 Elizabeth MCDOWELL 284 01:39:40 13 390 00:07:37 1:54 sec/100m 22 479 00:08:32 13 242 00:48:43 12.3 m/hr 18 430 00:03:52 18 423 00:30:58 15:28 min/m
17 375 Brenda CLINARD 248 01:41:02 15 397 00:07:38 1:54 sec/100m 15 306 00:03:56 22 413 01:02:43 9.6 m/hr 6 173 00:01:43 11 275 00:25:03 12:31 min/m
18 403 Mary A SERRANO 122 01:43:48 21 445 00:08:13 2:03 sec/100m 16 316 00:04:03 20 395 00:59:48 10.0 m/hr 14 246 00:02:02 16 402 00:29:43 14:51 min/m
19 413 Frances TORRES 563 01:46:09 19 427 00:07:58 1:59 sec/100m 9 133 00:02:34 16 308 00:51:50 11.6 m/hr 22 495 00:10:11 21 458 00:33:38 16:48 min/m
20 414 Joye HAUN 501 01:46:15 20 433 00:08:03 2:00 sec/100m 20 414 00:05:37 18 376 00:57:13 10.5 m/hr 9 190 00:01:47 20 457 00:33:38 16:48 min/m
21 420 Sherilyn SMITH 561 01:47:00 14 396 00:07:38 1:54 sec/100m 21 437 00:06:04 19 386 00:58:57 10.2 m/hr 21 483 00:06:27 14 368 00:27:57 13:58 min/m
22 432 Cynthia MAGNER 397 01:48:47                                    
23 457 Nancy HOGAN 43 01:55:01 22 453 00:08:22 2:05 sec/100m 18 346 00:04:29 21 405 01:00:29 9.9 m/hr 20 468 00:04:57 22 480 00:36:45 18:22 min/m
Ages 60 - 64
1 118 Carollyn FONTANA 240 01:16:52 1 159 00:06:36 1:38 sec/100m 2 95 00:02:13 3 118 00:42:58 14.0 m/hr 1 74 00:01:18 1 238 00:23:49 11:54 min/m
2 128 Virginia COLLAZO 168 01:17:18 4 370 00:07:30 1:52 sec/100m 3 151 00:02:43 2 50 00:39:05 15.4 m/hr 8 415 00:03:36 2 253 00:24:25 12:12 min/m
3 157 Jerri HYLAND 182 01:19:32 6 401 00:07:39 1:54 sec/100m 5 219 00:03:12 1 24 00:37:12 16.1 m/hr 9 418 00:03:42 3 359 00:27:49 13:54 min/m
4 230 Beverly SIGLER 528 01:25:56 5 381 00:07:33 1:53 sec/100m 1 91 00:02:11 4 146 00:44:23 13.5 m/hr 4 283 00:02:19 5 397 00:29:31 14:45 min/m
5 260 Teresa JACQUET 102 01:27:48 2 214 00:06:52 1:42 sec/100m 4 201 00:03:03 6 178 00:45:46 13.1 m/hr 2 125 00:01:27 6 418 00:30:42 15:20 min/m
6 304 Jean ROSCOVIUS 172 01:31:07 9 440 00:08:09 2:02 sec/100m 6 256 00:03:34 5 160 00:45:25 13.2 m/hr 5 339 00:02:46 7 427 00:31:15 15:37 min/m
7 369 Joan NEUBERGER 75 01:39:36 7 411 00:07:45 1:56 sec/100m 7 293 00:03:51 7 306 00:51:44 11.6 m/hr 6 346 00:02:48 9 456 00:33:29 16:44 min/m
8 427 Shirlene BALL 159 01:48:23 10 448 00:08:15 2:03 sec/100m 9 345 00:04:29 9 379 00:57:48 10.4 m/hr 10 443 00:04:02 10 460 00:33:51 16:55 min/m
9 435 Ana BOLAN 638 01:49:35 8 432 00:08:03 2:00 sec/100m 11 380 00:04:50 10 391 00:59:12 10.1 m/hr 13 473 00:05:31 8 436 00:32:01 16:00 min/m
10 437 Lucia FACUNDO 317 01:49:40 3 284 00:07:08 1:46 sec/100m 8 297 00:03:52 12 454 01:08:01 8.8 m/hr 3 144 00:01:33 4 388 00:29:08 14:33 min/m
11 452 Betty LITTRELL 157 01:53:41 13 487 00:10:11 2:32 sec/100m 12 473 00:07:43 8 334 00:53:11 11.3 m/hr 11 466 00:04:52 13 485 00:37:45 18:52 min/m
12 456 Carla SIEGESMUND 597 01:54:58 11 450 00:08:19 2:04 sec/100m 10 352 00:04:33 11 403 01:00:25 9.9 m/hr 12 467 00:04:57 12 481 00:36:47 18:23 min/m
13 488 Martha VERGARA 617 02:09:54 12 480 00:09:07 2:16 sec/100m 13 490 00:10:03 13 472 01:11:40 8.4 m/hr 7 347 00:02:49 11 477 00:36:18 18:08 min/m
Ages 65 - 69
1 186 Rhonda SKOW 183 01:21:32 1 320 00:07:17 1:49 sec/100m 1 100 00:02:16 2 244 00:48:46 12.3 m/hr 2 115 00:01:26 1 164 00:21:48 10:53 min/m
2 360 Cathy BUCHANAN 395 01:38:48 4 462 00:08:34 2:08 sec/100m 4 381 00:04:51 1 196 00:46:41 12.9 m/hr 5 405 00:03:29 4 466 00:35:15 17:37 min/m
3 428 Brenda REMUS 389 01:48:25 5 463 00:08:35 2:08 sec/100m 3 356 00:04:36 4 458 01:09:26 8.6 m/hr 3 274 00:02:17 2 228 00:23:33 11:46 min/m
4 468 Hester CHRISSY 707 01:59:52 2 425 00:07:56 1:58 sec/100m 2 247 00:03:29 3 444 01:07:10 8.9 m/hr 4 362 00:02:56 5 488 00:38:24 19:11 min/m
5 481 Rosario JUAREZ 427 02:05:01 3 428 00:07:58 1:59 sec/100m 5 382 00:04:51 5 487 01:20:38 7.4 m/hr 1 86 00:01:21 3 408 00:30:16 15:07 min/m
Ages 70 - 74
1 444 Rita DOMINGUEZ 72 01:52:10 1 464 00:08:35 2:08 sec/100m 1 363 00:04:41 2 425 01:04:23 9.3 m/hr 1 292 00:02:23 1 439 00:32:10 16:04 min/m
2 469 Ada O'STEEN 658 02:01:03 2 492 00:11:37 2:54 sec/100m 2 455 00:06:36 1 406 01:00:33 9.9 m/hr 2 381 00:03:11 2 489 00:39:09 19:34 min/m
Ages 75+
1 96 Gayla CHAMBERS 53 01:14:47 1 424 00:07:55 1:58 sec/100m 1 76 00:02:05 1 67 00:40:25 14.8 m/hr 1 429 00:03:52 1 115 00:20:31 10:15 min/m
2-Person Relay
1 150 SAVENS & PEREZ 718 01:19:24 2 122 00:06:28 1:36 sec/100m 3 83 00:02:08 1 226 00:48:02 12.5 m/hr 1 2 00:00:41 2 175 00:22:06 11:02 min/m
2 310 TEAM ELLERBROCK 214 01:32:07 1 33 00:06:05 1:31 sec/100m 4 322 00:04:07 3 389 00:59:03 10.2 m/hr 3 44 00:01:07 1 165 00:21:48 10:53 min/m
3 335 SECOND TRI 717 01:35:38 3 323 00:07:18 1:49 sec/100m 2 12 00:01:06 2 266 00:49:38 12.1 m/hr 4 308 00:02:27 4 463 00:35:11 17:35 min/m
4 408 TEAM BERNAL 719 01:44:58 4 362 00:07:29 1:52 sec/100m 1 7 00:00:57 4 465 01:10:20 8.5 m/hr 2 17 00:00:50 3 292 00:25:25 12:42 min/m
3-Person Relay
1 14 KEEP CALM & KICK ON 710 01:02:47 2 183 00:06:45 1:41 sec/100m 1 2 00:00:46 1 39 00:38:01 15.8 m/hr 2 5 00:00:43 1 19 00:16:33 8:16 min/m
2 35 TEAM TRIAGE 745 01:07:32 3 184 00:06:45 1:41 sec/100m 2 3 00:00:50 2 43 00:38:26 15.6 m/hr 3 8 00:00:47 4 125 00:20:46 10:22 min/m
3 61 TOTCHOS 738 01:11:18 4 188 00:06:46 1:41 sec/100m 3 6 00:00:55 3 172 00:45:35 13.2 m/hr 1 1 00:00:39 2 36 00:17:25 8:42 min/m
4 412 WANDA WOMEN 743 01:46:09 5 444 00:08:13 2:03 sec/100m 6 349 00:04:32 6 475 01:13:26 8.2 m/hr 6 156 00:01:37 3 54 00:18:23 9:11 min/m
5 423 TEAM KING 740 01:47:26 6 465 00:08:38 2:09 sec/100m 5 72 00:02:04 4 435 01:05:30 9.2 m/hr 5 111 00:01:26 6 404 00:29:51 14:55 min/m
6 430 WORK HARD/PLAY HARD 744 01:48:42 1 174 00:06:41 1:40 sec/100m 4 17 00:01:15 5 467 01:10:46 8.5 m/hr 4 18 00:00:50 5 392 00:29:11 14:35 min/m
Race timing by RRPTiming.com!

[ Triathlon ] [ Swim/Bike ][ Swim/Run ] [ Bike/Run ]

2017 Spa Girl Tri Austin Results
Swim/Bike
Overall Swim
--400 M--
T Bike
--10 Miles--
Overall
Pos
Name Race No Time Overall
Pos
Time Pace Overall
Pos
Time Overall
Pos
Time Pace
1 Melissa MOODY 548 00:51:30 1 00:06:47 1:41 sec/100m 1 00:02:58 1 00:41:44 14.4 m/hr
2 Alejandra BARRON 146 00:56:52 2 00:06:52 1:43 sec/100m 2 00:03:24 2 00:46:35 12.9 m/hr
Race timing by RRPTiming.com!

[ Triathlon ] [ Swim/Bike ][ Swim/Run ] [ Bike/Run ]

2017 Spa Girl Tri Austin Results
Swim/Run
Overall Swim
--400 M--
T Run
--2 Miles--
Overall
Pos
Name Race No Time Overall
Pos
Time Pace Overall
Pos
Time Overall
Pos
Time Pace
1 Teresa WOHLERS 96 00:25:10 2 00:06:29 1:37 sec/100m 6 00:02:23 1 00:16:19 8:09 min/m
2 Rosanna BARRERA 383 00:29:10 6 00:06:57 1:44 sec/100m 2 00:01:56 2 00:20:18 10:08 min/m
3 K MORIARTY 1 00:31:45 5 00:06:54 1:43 sec/100m 1 00:01:33 3 00:23:20 11:39 min/m
4 MCAFOOSE SISTERS 730 00:31:56 1 00:05:52 1:27 sec/100m 4 00:01:58 5 00:24:07 12:03 min/m
5 Natasha LEE 271 00:36:46 8 00:07:03 1:45 sec/100m 24 00:06:18 4 00:23:25 11:42 min/m
6 Rylee SKILLMAN 81 00:37:30 4 00:06:52 1:42 sec/100m 18 00:04:51 8 00:25:48 12:53 min/m
7 Hannah VALDINI 508 00:37:33 7 00:07:00 1:44 sec/100m 16 00:04:47 7 00:25:47 12:53 min/m
8 Jessica MAKI 665 00:38:58 32 00:09:52 2:27 sec/100m          
9 Kelly CARNES-MARTIN 217 00:39:03 33 00:09:59 2:29 sec/100m          
10 Melissa DOMINGUEZ 483 00:39:05 17 00:07:39 1:54 sec/100m 5 00:02:07 10 00:29:20 14:39 min/m
11 Elsa NICHOLSON 384 00:42:53 21 00:07:57 1:59 sec/100m 11 00:02:58 11 00:31:58 15:58 min/m
12 Jane Ireland IRELAND 20 00:43:06 27 00:08:18 2:04 sec/100m 7 00:02:28 12 00:32:22 16:10 min/m
13 Megan TRAD 671 00:47:43 28 00:08:30 2:07 sec/100m 20 00:05:47 15 00:33:27 16:43 min/m
14 Hailey HULL 616 00:48:36 16 00:07:38 1:54 sec/100m 22 00:06:12 17 00:34:47 17:23 min/m
15 Victoria SANDOVAL 657 00:48:38 23 00:08:10 2:02 sec/100m 28 00:07:10 14 00:33:19 16:39 min/m
16 Trish LANDERS 592 00:48:47 13 00:07:25 1:51 sec/100m 25 00:06:22 20 00:35:01 17:30 min/m
17 Brandy HULL 591 00:48:48 11 00:07:22 1:50 sec/100m 26 00:06:23 21 00:35:05 17:32 min/m
18 Regina BROWN 615 00:48:53 18 00:07:41 1:55 sec/100m 23 00:06:14 19 00:34:59 17:29 min/m
19 Faith PENA 747 00:49:51 34 00:22:19 5:34 sec/100m 3 00:01:58 6 00:25:35 12:47 min/m
20 Trish WALDEN 498 00:50:11 25 00:08:15 2:03 sec/100m 29 00:07:11 16 00:34:46 17:22 min/m
21 Railea SANDOVAL 656 00:50:12 26 00:08:16 2:03 sec/100m 27 00:06:59 18 00:34:58 17:28 min/m
22 Denise WHITSON 664 00:51:54 22 00:07:59 1:59 sec/100m 12 00:03:57 25 00:39:58 19:58 min/m
23 Amy LICZWEK 11 00:52:03 14 00:07:25 1:51 sec/100m 15 00:04:06 27 00:40:33 20:16 min/m
24 Karen MILLER 2 00:52:07 24 00:08:11 2:02 sec/100m 13 00:03:58 26 00:40:00 19:59 min/m
25 Lynda DE LA GARZA 46 00:52:12 29 00:08:32 2:07 sec/100m 19 00:04:54 23 00:38:47 19:23 min/m
26 Gloria DE LA GARZA 549 00:52:16 30 00:08:38 2:09 sec/100m 17 00:04:50 24 00:38:49 19:24 min/m
27 Judy HARRIS 667 00:52:32 20 00:07:56 1:58 sec/100m 14 00:04:04 28 00:40:33 20:16 min/m
28 Danor PADDEN 580 00:53:59 12 00:07:25 1:51 sec/100m 8 00:02:38 29 00:43:57 21:58 min/m
29 Stacy SNAVELY 624 00:56:49 31 00:09:12 2:17 sec/100m 30 00:09:22 22 00:38:16 19:07 min/m
30 Darla TUCKER 570 01:17:22 19 00:07:51 1:57 sec/100m 21 00:05:48 30 01:03:44 31:51 min/m
31 Michelle ZALUDEK 456 01:19:48 3 00:06:33 1:38 sec/100m 31 00:45:19 9 00:27:56 13:57 min/m
32 Jan DOYLE 619 01:32:57 10 00:07:14 1:48 sec/100m 9 00:02:41 31 01:23:03 41:31 min/m
33 Mary MILLER 149 01:35:25 9 00:07:04 1:45 sec/100m 10 00:02:42 32 01:25:40 42:49 min/m
34 Claudia RAMIREZ 3 01:43:16 15 00:07:35 1:53 sec/100m 32 01:03:20 13 00:32:22 16:10 min/m
Race timing by RRPTiming.com!

[ Triathlon ] [ Swim/Bike ][ Swim/Run ] [ Bike/Run ]

2017 Spa Girl Tri Austin Results
Bike/Run
Overall Bike
--10 Miles--
T Run
--2 Miles--
Overall
Pos
Name Race No Time Overall
Pos
Time Pace Overall
Pos
Time Overall
Pos
Time Pace
1 Stephanie HEMINGWAY 690 00:49:48           5 00:29:09 14:34 min/m
2 Anne EKERN 697 00:59:00 3 00:43:10 13.9 m/hr 1 00:01:36 1 00:14:13 7:06 min/m
3 Sarah GENTRY 696 01:06:05 4 00:45:30 13.2 m/hr 2 00:02:39 2 00:17:54 8:57 min/m
4 Linda BERGLING 692 01:08:43 1 00:39:20 15.3 m/hr 3 00:03:21 4 00:26:01 13:00 min/m
5 Cynthia GRIFFITH 695 01:12:24 2 00:42:46 14.0 m/hr 4 00:04:14 3 00:25:24 12:42 min/m
Race timing by RRPTiming.com!